Observation data for Fort Lewis CO on 11/13/2019      Previous  Date       Current Mesonet Observations  Soil Data  Daily Summary Page  Observations in Plain Language
KFL1 130600Z 04008KT M02/M11 A3025 RMK A01 T10161113  RH  048%=      5-min Rain = 0
KFL1 130601Z 04008KT M01/M11 A3025 RMK A01 T10141112  RH  047%=      5-min Rain = 0
KFL1 130602Z 05007KT M02/M11 A3025 RMK A01 T10151113  RH  047%=      5-min Rain = 0
KFL1 130603Z 04007KT M02/M11 A3025 RMK A01 T10151113  RH  047%=      5-min Rain = 0
KFL1 130604Z 04007KT M01/M11 A3025 RMK A01 T10141113  RH  047%=      5-min Rain = 0
KFL1 130605Z 03006KT M01/M11 A3025 RMK A01 T10141113  RH  047%=      5-min Rain = 0
KFL1 130606Z 03005KT M02/M11 A3025 RMK A01 T10161114  RH  047%=      5-min Rain = 0
KFL1 130607Z 03005KT M03/M12 A3025 RMK A01 T10271117  RH  050%=      5-min Rain = 0
KFL1 130608Z 04006KT M04/M12 A3025 RMK A01 T10361117  RH  053%=      5-min Rain = 0
KFL1 130609Z 04006KT M04/M12 A3025 RMK A01 T10391116  RH  055%=      5-min Rain = 0
KFL1 130610Z 04006KT M04/M11 A3025 RMK A01 T10361113  RH  055%=      5-min Rain = 0
KFL1 130611Z 04006KT M03/M11 A3025 RMK A01 T10341114  RH  054%=      5-min Rain = 0
KFL1 130612Z 03005KT M03/M11 A3025 RMK A01 T10291112  RH  053%=      5-min Rain = 0
KFL1 130613Z 01004KT M03/M11 A3025 RMK A01 T10301114  RH  052%=      5-min Rain = 0
KFL1 130614Z 02005KT M04/M12 A3025 RMK A01 T10371116  RH  054%=      5-min Rain = 0
KFL1 130615Z 03006KT M04/M12 A3025 RMK A01 T10421117  RH  056%=      5-min Rain = 0
KFL1 130616Z 04007KT M04/M12 A3025 RMK A01 T10441116  RH  057%=      5-min Rain = 0
KFL1 130617Z 05007KT M04/M11 A3025 RMK A01 T10421114  RH  057%=      5-min Rain = 0
KFL1 130618Z 05007KT M04/M11 A3025 RMK A01 T10391114  RH  056%=      5-min Rain = 0
KFL1 130619Z 04007KT M03/M11 A3025 RMK A01 T10341113  RH  055%=      5-min Rain = 0
KFL1 130620Z 04008KT M03/M11 A3025 RMK A01 T10311112  RH  053%=      5-min Rain = 0
KFL1 130621Z 04007KT M03/M11 A3024 RMK A01 T10291112  RH  053%=      5-min Rain = 0
KFL1 130622Z 04006KT M03/M11 A3024 RMK A01 T10251111  RH  052%=      5-min Rain = 0
KFL1 130623Z 03006KT M02/M11 A3024 RMK A01 T10231112  RH  051%=      5-min Rain = 0
KFL1 130624Z 02006KT M03/M12 A3024 RMK A01 T10281115  RH  051%=      5-min Rain = 0
KFL1 130625Z 03006KT M04/M12 A3024 RMK A01 T10371118  RH  053%=      5-min Rain = 0
KFL1 130626Z 03006KT M04/M12 A3024 RMK A01 T10411117  RH  056%=      5-min Rain = 0
KFL1 130627Z 04006KT M04/M11 A3024 RMK A01 T10421114  RH  057%=      5-min Rain = 0
KFL1 130628Z 03006KT M04/M11 A3024 RMK A01 T10431113  RH  058%=      5-min Rain = 0
KFL1 130629Z 04006KT M04/M11 A3024 RMK A01 T10431112  RH  059%=      5-min Rain = 0
KFL1 130630Z 04005KT M04/M11 A3025 RMK A01 T10441111  RH  059%=      5-min Rain = 0
KFL1 130631Z 03005KT M05/M11 A3024 RMK A01 T10471112  RH  060%=      5-min Rain = 0
KFL1 130632Z 04004KT M05/M11 A3024 RMK A01 T10501111  RH  062%=      5-min Rain = 0
KFL1 130633Z 04003KT M05/M11 A3024 RMK A01 T10511111  RH  063%=      5-min Rain = 0
KFL1 130634Z 03004KT M05/M11 A3024 RMK A01 T10521111  RH  063%=      5-min Rain = 0
KFL1 130635Z 03005KT M05/M11 A3024 RMK A01 T10521112  RH  063%=      5-min Rain = 0
KFL1 130636Z 06004KT M05/M11 A3024 RMK A01 T10521112  RH  063%=      5-min Rain = 0
KFL1 130637Z 07003KT M05/M11 A3024 RMK A01 T10501111  RH  062%=      5-min Rain = 0
KFL1 130638Z 06005KT M05/M11 A3024 RMK A01 T10481111  RH  062%=      5-min Rain = 0
KFL1 130639Z 05006KT M05/M11 A3024 RMK A01 T10461111  RH  060%=      5-min Rain = 0
KFL1 130640Z 05007KT M04/M11 A3024 RMK A01 T10431112  RH  059%=      5-min Rain = 0
KFL1 130641Z 05007KT M04/M11 A3024 RMK A01 T10421113  RH  058%=      5-min Rain = 0
KFL1 130642Z 05007KT M04/M11 A3024 RMK A01 T10401114  RH  057%=      5-min Rain = 0
KFL1 130643Z 04008KT M04/M11 A3024 RMK A01 T10391114  RH  056%=      5-min Rain = 0
KFL1 130644Z 04008KT M04/M11 A3024 RMK A01 T10361113  RH  055%=      5-min Rain = 0
KFL1 130645Z 04009KT M03/M11 A3024 RMK A01 T10341114  RH  054%=      5-min Rain = 0
KFL1 130646Z 04009KT M03/M11 A3024 RMK A01 T10321113  RH  053%=      5-min Rain = 0
KFL1 130647Z 04008KT M03/M11 A3024 RMK A01 T10311114  RH  053%=      5-min Rain = 0
KFL1 130648Z 04008KT M03/M11 A3024 RMK A01 T10291113  RH  052%=      5-min Rain = 0
KFL1 130649Z 04008KT M03/M11 A3024 RMK A01 T10281112  RH  052%=      5-min Rain = 0
KFL1 130650Z 04007KT M03/M11 A3024 RMK A01 T10281112  RH  052%=      5-min Rain = 0
KFL1 130651Z 04007KT M03/M11 A3024 RMK A01 T10261111  RH  052%=      5-min Rain = 0
KFL1 130652Z 04007KT M02/M11 A3024 RMK A01 T10241110  RH  051%=      5-min Rain = 0
KFL1 130653Z 04007KT M02/M11 A3024 RMK A01 T10241112  RH  051%=      5-min Rain = 0
KFL1 130654Z 04006KT M02/M11 A3024 RMK A01 T10221110  RH  051%=      5-min Rain = 0
KFL1 130655Z 04006KT M03/M11 A3024 RMK A01 T10251113  RH  051%=      5-min Rain = 0
KFL1 130656Z 04005KT M03/M11 A3024 RMK A01 T10291114  RH  052%=      5-min Rain = 0
KFL1 130657Z 04005KT M03/M12 A3024 RMK A01 T10341115  RH  054%=      5-min Rain = 0
KFL1 130658Z 04006KT M04/M12 A3024 RMK A01 T10401116  RH  055%=      5-min Rain = 0
KFL1 130659Z 04006KT M04/M12 A3024 RMK A01 T10421115  RH  057%=      5-min Rain = 0
KFL1 130700Z 04006KT M04/M11 A3024 RMK A01 T10411113  RH  057%=      5-min Rain = 0
KFL1 130701Z 05006KT M04/M11 A3024 RMK A01 T10421114  RH  058%=      5-min Rain = 0
KFL1 130702Z 04005KT M04/M11 A3024 RMK A01 T10411112  RH  058%=      5-min Rain = 0
KFL1 130703Z 04004KT M05/M11 A3024 RMK A01 T10451113  RH  059%=      5-min Rain = 0
KFL1 130704Z 04005KT M05/M12 A3024 RMK A01 T10521115  RH  061%=      5-min Rain = 0
KFL1 130705Z 04006KT M06/M12 A3024 RMK A01 T10581116  RH  064%=      5-min Rain = 0
KFL1 130706Z 04005KT M06/M12 A3024 RMK A01 T10601115  RH  065%=      5-min Rain = 0
KFL1 130707Z 04005KT M06/M11 A3024 RMK A01 T10591112  RH  066%=      5-min Rain = 0
KFL1 130708Z 04005KT M06/M11 A3024 RMK A01 T10571110  RH  066%=      5-min Rain = 0
KFL1 130709Z 04005KT M06/M11 A3024 RMK A01 T10581111  RH  066%=      5-min Rain = 0
KFL1 130710Z 04005KT M06/M11 A3024 RMK A01 T10581112  RH  066%=      5-min Rain = 0
KFL1 130711Z 04005KT M06/M11 A3024 RMK A01 T10571111  RH  066%=      5-min Rain = 0
KFL1 130712Z 04005KT M06/M11 A3024 RMK A01 T10571110  RH  066%=      5-min Rain = 0
KFL1 130713Z 03004KT M06/M11 A3024 RMK A01 T10601112  RH  067%=      5-min Rain = 0
KFL1 130714Z 03005KT M06/M11 A3024 RMK A01 T10611113  RH  067%=      5-min Rain = 0
KFL1 130715Z 02004KT M06/M11 A3024 RMK A01 T10641114  RH  068%=      5-min Rain = 0
KFL1 130716Z 02004KT M07/M11 A3024 RMK A01 T10651113  RH  068%=      5-min Rain = 0
KFL1 130717Z 02004KT M06/M11 A3024 RMK A01 T10621111  RH  068%=      5-min Rain = 0
KFL1 130718Z 02003KT M06/M11 A3024 RMK A01 T10581109  RH  067%=      5-min Rain = 0
KFL1 130719Z 02003KT M05/M11 A3024 RMK A01 T10541109  RH  065%=      5-min Rain = 0
KFL1 130720Z 02003KT M05/M11 A3024 RMK A01 T10511109  RH  064%=      5-min Rain = 0
KFL1 130721Z 02002KT M05/M11 A3024 RMK A01 T10511109  RH  063%=      5-min Rain = 0
KFL1 130722Z 01002KT M05/M11 A3024 RMK A01 T10541112  RH  064%=      5-min Rain = 0
KFL1 130723Z 01002KT M06/M11 A3024 RMK A01 T10561113  RH  064%=      5-min Rain = 0
KFL1 130724Z 01002KT M06/M11 A3024 RMK A01 T10581113  RH  065%=      5-min Rain = 0
KFL1 130725Z 01002KT M06/M11 A3023 RMK A01 T10581112  RH  066%=      5-min Rain = 0
KFL1 130726Z 01002KT M06/M11 A3023 RMK A01 T10581111  RH  066%=      5-min Rain = 0
KFL1 130727Z 00002KT M06/M11 A3023 RMK A01 T10611113  RH  067%=      5-min Rain = 0
KFL1 130728Z 35003KT M06/M11 A3023 RMK A01 T10621112  RH  068%=      5-min Rain = 0
KFL1 130729Z 34002KT M06/M11 A3023 RMK A01 T10571107  RH  068%=      5-min Rain = 0
KFL1 130730Z 34001KT M05/M11 A3023 RMK A01 T10521105  RH  066%=      5-min Rain = 0
KFL1 130731Z 34001KT M05/M11 A3023 RMK A01 T10531108  RH  066%=      5-min Rain = 0
KFL1 130732Z 33002KT M06/M11 A3023 RMK A01 T10581112  RH  066%=      5-min Rain = 0
KFL1 130733Z 33002KT M06/M12 A3023 RMK A01 T10641116  RH  067%=      5-min Rain = 0
KFL1 130734Z 32002KT M07/M12 A3023 RMK A01 T10681116  RH  068%=      5-min Rain = 0
KFL1 130735Z 32003KT M07/M11 A3023 RMK A01 T10691114  RH  070%=      5-min Rain = 0
KFL1 130736Z 32003KT M07/M11 A3023 RMK A01 T10701114  RH  071%=      5-min Rain = 0
KFL1 130737Z 32003KT M07/M11 A3023 RMK A01 T10701113  RH  072%=      5-min Rain = 0
KFL1 130738Z 32003KT M07/M11 A3023 RMK A01 T10701112  RH  072%=      5-min Rain = 0
KFL1 130739Z 31003KT M07/M11 A3023 RMK A01 T10691111  RH  072%=      5-min Rain = 0
KFL1 130740Z 32003KT M07/M11 A3023 RMK A01 T10681110  RH  072%=      5-min Rain = 0
KFL1 130741Z 31003KT M06/M11 A3023 RMK A01 T10631107  RH  071%=      5-min Rain = 0
KFL1 130742Z 31003KT M06/M11 A3023 RMK A01 T10601107  RH  069%=      5-min Rain = 0
KFL1 130743Z 31003KT M06/M11 A3023 RMK A01 T10581108  RH  068%=      5-min Rain = 0
KFL1 130744Z 31003KT M06/M11 A3023 RMK A01 T10581108  RH  068%=      5-min Rain = 0
KFL1 130745Z 31003KT M06/M11 A3023 RMK A01 T10611111  RH  068%=      5-min Rain = 0
KFL1 130746Z 30003KT M06/M11 A3023 RMK A01 T10631111  RH  069%=      5-min Rain = 0
KFL1 130747Z 30004KT M07/M11 A3023 RMK A01 T10651111  RH  070%=      5-min Rain = 0
KFL1 130748Z 30004KT M07/M11 A3023 RMK A01 T10671112  RH  070%=      5-min Rain = 0
KFL1 130749Z 30005KT M07/M11 A3023 RMK A01 T10691112  RH  072%=      5-min Rain = 0
KFL1 130750Z 30004KT M07/M11 A3023 RMK A01 T10711112  RH  073%=      5-min Rain = 0
KFL1 130751Z 30004KT M07/M11 A3023 RMK A01 T10721111  RH  073%=      5-min Rain = 0
KFL1 130752Z 30004KT M07/M11 A3023 RMK A01 T10731111  RH  074%=      5-min Rain = 0
KFL1 130753Z 29004KT M07/M11 A3023 RMK A01 T10721110  RH  074%=      5-min Rain = 0
KFL1 130754Z 29005KT M07/M11 A3023 RMK A01 T10721109  RH  075%=      5-min Rain = 0
KFL1 130755Z 29004KT M07/M11 A3023 RMK A01 T10731111  RH  074%=      5-min Rain = 0
KFL1 130756Z 29004KT M07/M11 A3023 RMK A01 T10741111  RH  075%=      5-min Rain = 0
KFL1 130757Z 29004KT M07/M11 A3023 RMK A01 T10731110  RH  075%=      5-min Rain = 0
KFL1 130758Z 29004KT M07/M11 A3023 RMK A01 T10721109  RH  075%=      5-min Rain = 0
KFL1 130759Z 30004KT M07/M11 A3023 RMK A01 T10691107  RH  075%=      5-min Rain = 0
KFL1 130800Z 31003KT M07/M11 A3023 RMK A01 T10671107  RH  074%=      5-min Rain = 0
KFL1 130801Z 32003KT M06/M11 A3023 RMK A01 T10641105  RH  073%=      5-min Rain = 0
KFL1 130802Z 35003KT M06/M10 A3023 RMK A01 T10591103  RH  071%=      5-min Rain = 0
KFL1 130803Z 01003KT M05/M10 A3023 RMK A01 T10521102  RH  068%=      5-min Rain = 0
KFL1 130804Z 02003KT M05/M10 A3023 RMK A01 T10471102  RH  065%=      5-min Rain = 0
KFL1 130805Z 01002KT M04/M10 A3023 RMK A01 T10431102  RH  063%=      5-min Rain = 0
KFL1 130806Z 04003KT M04/M10 A3023 RMK A01 T10401103  RH  062%=      5-min Rain = 0
KFL1 130807Z 04003KT M04/M10 A3023 RMK A01 T10401104  RH  061%=      5-min Rain = 0
KFL1 130808Z 05003KT M04/M10 A3023 RMK A01 T10381104  RH  060%=      5-min Rain = 0
KFL1 130809Z 04004KT M04/M11 A3023 RMK A01 T10371105  RH  059%=      5-min Rain = 0
KFL1 130810Z 04005KT M03/M10 A3023 RMK A01 T10331104  RH  058%=      5-min Rain = 0
KFL1 130811Z 04005KT M03/M10 A3023 RMK A01 T10291103  RH  057%=      5-min Rain = 0
KFL1 130812Z 04004KT M03/M10 A3023 RMK A01 T10261104  RH  055%=      5-min Rain = 0
KFL1 130813Z 04003KT M02/M10 A3023 RMK A01 T10241104  RH  054%=      5-min Rain = 0
KFL1 130814Z 05003KT M02/M10 A3023 RMK A01 T10221104  RH  053%=      5-min Rain = 0
KFL1 130815Z 04004KT M02/M10 A3023 RMK A01 T10191103  RH  053%=      5-min Rain = 0
KFL1 130816Z 04004KT M02/M11 A3022 RMK A01 T10201106  RH  052%=      5-min Rain = 0
KFL1 130817Z 04005KT M02/M11 A3022 RMK A01 T10191105  RH  052%=      5-min Rain = 0
KFL1 130818Z 04005KT M02/M11 A3022 RMK A01 T10181106  RH  051%=      5-min Rain = 0
KFL1 130819Z 04005KT M02/M11 A3022 RMK A01 T10211109  RH  051%=      5-min Rain = 0
KFL1 130820Z 04005KT M03/M11 A3022 RMK A01 T10321113  RH  053%=      5-min Rain = 0
KFL1 130821Z 04005KT M04/M11 A3022 RMK A01 T10391113  RH  056%=      5-min Rain = 0
KFL1 130822Z 04005KT M04/M11 A3022 RMK A01 T10441112  RH  059%=      5-min Rain = 0
KFL1 130823Z 03005KT M05/M11 A3022 RMK A01 T10481111  RH  061%=      5-min Rain = 0
KFL1 130824Z 03004KT M05/M11 A3022 RMK A01 T10521112  RH  063%=      5-min Rain = 0
KFL1 130825Z 03004KT M06/M11 A3022 RMK A01 T10551111  RH  065%=      5-min Rain = 0
KFL1 130826Z 03005KT M05/M11 A3022 RMK A01 T10541108  RH  066%=      5-min Rain = 0
KFL1 130827Z 03005KT M06/M11 A3022 RMK A01 T10561109  RH  066%=      5-min Rain = 0
KFL1 130828Z 03005KT M06/M11 A3022 RMK A01 T10581110  RH  067%=      5-min Rain = 0
KFL1 130829Z 03006KT M06/M11 A3022 RMK A01 T10591109  RH  068%=      5-min Rain = 0
KFL1 130830Z 04005KT M06/M11 A3022 RMK A01 T10601109  RH  068%=      5-min Rain = 0
KFL1 130831Z 04005KT M06/M11 A3022 RMK A01 T10601108  RH  069%=      5-min Rain = 0
KFL1 130832Z 04005KT M06/M11 A3022 RMK A01 T10581106  RH  069%=      5-min Rain = 0
KFL1 130833Z 04005KT M06/M11 A3022 RMK A01 T10591108  RH  069%=      5-min Rain = 0
KFL1 130834Z 04006KT M06/M11 A3022 RMK A01 T10591107  RH  069%=      5-min Rain = 0
KFL1 130835Z 04006KT M06/M11 A3022 RMK A01 T10581106  RH  069%=      5-min Rain = 0
KFL1 130836Z 04006KT M06/M11 A3022 RMK A01 T10571106  RH  068%=      5-min Rain = 0
KFL1 130837Z 04008KT M05/M10 A3022 RMK A01 T10501103  RH  067%=      5-min Rain = 0
KFL1 130838Z 04008KT M04/M10 A3022 RMK A01 T10421102  RH  063%=      5-min Rain = 0
KFL1 130839Z 05008KT M04/M10 A3022 RMK A01 T10351102  RH  060%=      5-min Rain = 0
KFL1 130840Z 05007KT M03/M10 A3022 RMK A01 T10301104  RH  057%=      5-min Rain = 0
KFL1 130841Z 04007KT M02/M10 A3022 RMK A01 T10241104  RH  054%=      5-min Rain = 0
KFL1 130842Z 04006KT M02/M10 A3022 RMK A01 T10191104  RH  052%=      5-min Rain = 0
KFL1 130843Z 04007KT M02/M10 A3022 RMK A01 T10151104  RH  051%=      5-min Rain = 0
KFL1 130844Z 04006KT M01/M11 A3022 RMK A01 T10121105  RH  049%=      5-min Rain = 0
KFL1 130845Z 04005KT M01/M11 A3021 RMK A01 T10101105  RH  049%=      5-min Rain = 0
KFL1 130846Z 04006KT M01/M11 A3021 RMK A01 T10091105  RH  048%=      5-min Rain = 0
KFL1 130847Z 04005KT M01/M11 A3021 RMK A01 T10091106  RH  048%=      5-min Rain = 0
KFL1 130848Z 04005KT M01/M11 A3021 RMK A01 T10091106  RH  048%=      5-min Rain = 0
KFL1 130849Z 03005KT M01/M11 A3021 RMK A01 T10101106  RH  048%=      5-min Rain = 0
KFL1 130850Z 04005KT M01/M11 A3021 RMK A01 T10121107  RH  049%=      5-min Rain = 0
KFL1 130851Z 04005KT M02/M11 A3021 RMK A01 T10151107  RH  049%=      5-min Rain = 0
KFL1 130852Z 04005KT M02/M11 A3021 RMK A01 T10171108  RH  050%=      5-min Rain = 0
KFL1 130853Z 04006KT M02/M11 A3021 RMK A01 T10201110  RH  050%=      5-min Rain = 0
KFL1 130854Z 04006KT M02/M11 A3021 RMK A01 T10221110  RH  051%=      5-min Rain = 0
KFL1 130855Z 03005KT M02/M11 A3021 RMK A01 T10231110  RH  052%=      5-min Rain = 0
KFL1 130856Z 04005KT M03/M11 A3021 RMK A01 T10281111  RH  053%=      5-min Rain = 0
KFL1 130857Z 04006KT M03/M11 A3021 RMK A01 T10311112  RH  054%=      5-min Rain = 0
KFL1 130858Z 04007KT M03/M11 A3021 RMK A01 T10291110  RH  054%=      5-min Rain = 0
KFL1 130859Z 04007KT M03/M11 A3021 RMK A01 T10251109  RH  053%=      5-min Rain = 0
KFL1 130900Z 04005KT M02/M11 A3021 RMK A01 T10231110  RH  051%=      5-min Rain = 0
KFL1 130901Z 04006KT M02/M11 A3021 RMK A01 T10221110  RH  051%=      5-min Rain = 0
KFL1 130902Z 04009KT M02/M11 A3021 RMK A01 T10241113  RH  050%=      5-min Rain = 0
KFL1 130903Z 04008KT M02/M11 A3021 RMK A01 T10231113  RH  050%=      5-min Rain = 0
KFL1 130904Z 04009KT M02/M11 A3021 RMK A01 T10231114  RH  050%=      5-min Rain = 0
KFL1 130905Z 04009KT M02/M11 A3021 RMK A01 T10241114  RH  050%=      5-min Rain = 0
KFL1 130906Z 04009KT M02/M12 A3021 RMK A01 T10241115  RH  049%=      5-min Rain = 0
KFL1 130907Z 04008KT M02/M12 A3021 RMK A01 T10241116  RH  049%=      5-min Rain = 0
KFL1 130908Z 04009KT M02/M12 A3021 RMK A01 T10231115  RH  049%=      5-min Rain = 0
KFL1 130909Z 04008KT M02/M12 A3021 RMK A01 T10221116  RH  049%=      5-min Rain = 0
KFL1 130910Z 04009KT M02/M12 A3021 RMK A01 T10211117  RH  048%=      5-min Rain = 0
KFL1 130911Z 04009KT M02/M12 A3021 RMK A01 T10191117  RH  047%=      5-min Rain = 0
KFL1 130912Z 04008KT M02/M12 A3021 RMK A01 T10171117  RH  046%=      5-min Rain = 0
KFL1 130913Z 04008KT M02/M12 A3021 RMK A01 T10151117  RH  046%=      5-min Rain = 0
KFL1 130914Z 04008KT M01/M12 A3021 RMK A01 T10131116  RH  045%=      5-min Rain = 0
KFL1 130915Z 04008KT M01/M12 A3021 RMK A01 T10121117  RH  045%=      5-min Rain = 0
KFL1 130916Z 04009KT M01/M12 A302 RMK A01 T10101117  RH  044%=      5-min Rain = 0
KFL1 130917Z 04008KT M01/M12 A302 RMK A01 T10101118  RH  044%=      5-min Rain = 0
KFL1 130918Z 04008KT M01/M12 A302 RMK A01 T10081118  RH  043%=      5-min Rain = 0
KFL1 130919Z 04007KT M00/M12 A302 RMK A01 T10041116  RH  043%=      5-min Rain = 0
KFL1 130920Z 04006KT M00/M12 A302 RMK A01 T10021116  RH  042%=      5-min Rain = 0
KFL1 130921Z 04006KT M00/M12 A302 RMK A01 T10021117  RH  042%=      5-min Rain = 0
KFL1 130922Z 04006KT M00/M12 A302 RMK A01 T10021117  RH  042%=      5-min Rain = 0
KFL1 130923Z 05007KT M00/M12 A302 RMK A01 T10031118  RH  042%=      5-min Rain = 0
KFL1 130924Z 04008KT M01/M12 A302 RMK A01 T10051118  RH  042%=      5-min Rain = 0
KFL1 130925Z 04007KT M01/M12 A302 RMK A01 T10081119  RH  043%=      5-min Rain = 0
KFL1 130926Z 04006KT M01/M12 A302 RMK A01 T10081118  RH  043%=      5-min Rain = 0
KFL1 130927Z 04006KT M01/M12 A302 RMK A01 T10071116  RH  043%=      5-min Rain = 0
KFL1 130928Z 04006KT M01/M12 A302 RMK A01 T10091118  RH  043%=      5-min Rain = 0
KFL1 130929Z 04006KT M01/M12 A302 RMK A01 T10091117  RH  044%=      5-min Rain = 0
KFL1 130930Z 04005KT M01/M12 A302 RMK A01 T10091117  RH  044%=      5-min Rain = 0
KFL1 130931Z 04006KT M01/M12 A302 RMK A01 T10091118  RH  044%=      5-min Rain = 0
KFL1 130932Z 04006KT M01/M12 A302 RMK A01 T10091117  RH  044%=      5-min Rain = 0
KFL1 130933Z 04005KT M01/M12 A302 RMK A01 T10071115  RH  044%=      5-min Rain = 0
KFL1 130934Z 03005KT M01/M11 A302 RMK A01 T10061114  RH  044%=      5-min Rain = 0
KFL1 130935Z 03005KT M01/M12 A302 RMK A01 T10091115  RH  044%=      5-min Rain = 0
KFL1 130936Z 03006KT M01/M12 A302 RMK A01 T10121115  RH  045%=      5-min Rain = 0
KFL1 130937Z 03006KT M02/M12 A302 RMK A01 T10151115  RH  046%=      5-min Rain = 0
KFL1 130938Z 04005KT M02/M11 A302 RMK A01 T10171114  RH  047%=      5-min Rain = 0
KFL1 130939Z 03005KT M02/M11 A302 RMK A01 T10181114  RH  048%=      5-min Rain = 0
KFL1 130940Z 03005KT M02/M11 A302 RMK A01 T10191112  RH  049%=      5-min Rain = 0
KFL1 130941Z 03005KT M02/M11 A302 RMK A01 T10231112  RH  050%=      5-min Rain = 0
KFL1 130942Z 04005KT M03/M11 A302 RMK A01 T10281114  RH  052%=      5-min Rain = 0
KFL1 130943Z 04005KT M03/M11 A302 RMK A01 T10311114  RH  053%=      5-min Rain = 0
KFL1 130944Z 03005KT M04/M11 A302 RMK A01 T10351114  RH  054%=      5-min Rain = 0
KFL1 130945Z 04005KT M04/M11 A302 RMK A01 T10371114  RH  055%=      5-min Rain = 0
KFL1 130946Z 03005KT M04/M11 A302 RMK A01 T10361112  RH  055%=      5-min Rain = 0
KFL1 130947Z 03005KT M04/M11 A302 RMK A01 T10371112  RH  056%=      5-min Rain = 0
KFL1 130948Z 03005KT M04/M11 A302 RMK A01 T10411114  RH  057%=      5-min Rain = 0
KFL1 130949Z 03005KT M05/M12 A302 RMK A01 T10471115  RH  059%=      5-min Rain = 0
KFL1 130950Z 04006KT M05/M11 A302 RMK A01 T10481114  RH  060%=      5-min Rain = 0
KFL1 130951Z 04006KT M05/M11 A302 RMK A01 T10471113  RH  060%=      5-min Rain = 0
KFL1 130952Z 04006KT M04/M11 A302 RMK A01 T10421111  RH  059%=      5-min Rain = 0
KFL1 130953Z 04006KT M04/M11 A302 RMK A01 T10371109  RH  057%=      5-min Rain = 0
KFL1 130954Z 04006KT M03/M11 A302 RMK A01 T10341110  RH  056%=      5-min Rain = 0
KFL1 130955Z 04006KT M03/M11 A302 RMK A01 T10331112  RH  054%=      5-min Rain = 0
KFL1 130956Z 03006KT M03/M11 A302 RMK A01 T10301111  RH  054%=      5-min Rain = 0
KFL1 130957Z 03006KT M03/M11 A302 RMK A01 T10301111  RH  053%=      5-min Rain = 0
KFL1 130958Z 03006KT M04/M12 A302 RMK A01 T10381117  RH  054%=      5-min Rain = 0
KFL1 130959Z 03006KT M05/M12 A302 RMK A01 T10481119  RH  058%=      5-min Rain = 0
KFL1 131000Z 04006KT M05/M12 A302 RMK A01 T10531118  RH  060%=      5-min Rain = 0
KFL1 131001Z 04006KT M06/M12 A302 RMK A01 T10561116  RH  062%=      5-min Rain = 0
KFL1 131002Z 04005KT M05/M11 A302 RMK A01 T10541114  RH  063%=      5-min Rain = 0
KFL1 131003Z 04005KT M05/M11 A302 RMK A01 T10491110  RH  062%=      5-min Rain = 0
KFL1 131004Z 03005KT M05/M11 A302 RMK A01 T10481110  RH  062%=      5-min Rain = 0
KFL1 131005Z 03006KT M06/M12 A302 RMK A01 T10551116  RH  062%=      5-min Rain = 0
KFL1 131006Z 03006KT M06/M12 A302 RMK A01 T10571116  RH  063%=      5-min Rain = 0
KFL1 131007Z 03006KT M05/M11 A302 RMK A01 T10541113  RH  063%=      5-min Rain = 0
KFL1 131008Z 03006KT M05/M11 A302 RMK A01 T10511111  RH  063%=      5-min Rain = 0
KFL1 131009Z 03005KT M05/M11 A302 RMK A01 T10491111  RH  062%=      5-min Rain = 0
KFL1 131010Z 03006KT M05/M11 A302 RMK A01 T10481112  RH  061%=      5-min Rain = 0
KFL1 131011Z 02007KT M05/M11 A302 RMK A01 T10461111  RH  060%=      5-min Rain = 0
KFL1 131012Z 02008KT M05/M11 A302 RMK A01 T10451112  RH  060%=      5-min Rain = 0
KFL1 131013Z 03007KT M05/M11 A302 RMK A01 T10481114  RH  060%=      5-min Rain = 0
KFL1 131014Z 03007KT M05/M12 A302 RMK A01 T10501115  RH  061%=      5-min Rain = 0
KFL1 131015Z 03006KT M05/M12 A302 RMK A01 T10511115  RH  061%=      5-min Rain = 0
KFL1 131016Z 03005KT M05/M12 A302 RMK A01 T10521115  RH  061%=      5-min Rain = 0
KFL1 131017Z 02006KT M05/M11 A302 RMK A01 T10501114  RH  061%=      5-min Rain = 0
KFL1 131018Z 02006KT M05/M12 A302 RMK A01 T10511115  RH  061%=      5-min Rain = 0
KFL1 131019Z 02007KT M05/M12 A302 RMK A01 T10511115  RH  061%=      5-min Rain = 0
KFL1 131020Z 02007KT M05/M12 A302 RMK A01 T10521116  RH  061%=      5-min Rain = 0
KFL1 131021Z 02006KT M05/M11 A302 RMK A01 T10511114  RH  062%=      5-min Rain = 0
KFL1 131022Z 02006KT M05/M11 A302 RMK A01 T10511113  RH  062%=      5-min Rain = 0
KFL1 131023Z 03005KT M05/M12 A302 RMK A01 T10541115  RH  062%=      5-min Rain = 0
KFL1 131024Z 03005KT M06/M12 A302 RMK A01 T10571116  RH  063%=      5-min Rain = 0
KFL1 131025Z 03005KT M06/M12 A302 RMK A01 T10581115  RH  064%=      5-min Rain = 0
KFL1 131026Z 03005KT M06/M11 A3019 RMK A01 T10571114  RH  064%=      5-min Rain = 0
KFL1 131027Z 04005KT M06/M12 A3019 RMK A01 T10581115  RH  064%=      5-min Rain = 0
KFL1 131028Z 03005KT M06/M12 A3019 RMK A01 T10591115  RH  065%=      5-min Rain = 0
KFL1 131029Z 02005KT M06/M12 A3019 RMK A01 T10601115  RH  065%=      5-min Rain = 0
KFL1 131030Z 02005KT M06/M12 A3019 RMK A01 T10641117  RH  066%=      5-min Rain = 0
KFL1 131031Z 02006KT M06/M12 A3019 RMK A01 T10631115  RH  066%=      5-min Rain = 0
KFL1 131032Z 03005KT M06/M11 A3019 RMK A01 T10611114  RH  066%=      5-min Rain = 0
KFL1 131033Z 04005KT M06/M11 A3019 RMK A01 T10571112  RH  065%=      5-min Rain = 0
KFL1 131034Z 03005KT M05/M11 A3019 RMK A01 T10531112  RH  063%=      5-min Rain = 0
KFL1 131035Z 03005KT M05/M11 A3019 RMK A01 T10501113  RH  061%=      5-min Rain = 0
KFL1 131036Z 03004KT M05/M12 A3019 RMK A01 T10531115  RH  061%=      5-min Rain = 0
KFL1 131037Z 02005KT M06/M12 A3019 RMK A01 T10571117  RH  063%=      5-min Rain = 0
KFL1 131038Z 03004KT M06/M12 A3019 RMK A01 T10581117  RH  063%=      5-min Rain = 0
KFL1 131039Z 04004KT M06/M12 A3019 RMK A01 T10581116  RH  064%=      5-min Rain = 0
KFL1 131040Z 03004KT M06/M12 A3019 RMK A01 T10561115  RH  063%=      5-min Rain = 0
KFL1 131041Z 03004KT M06/M12 A3019 RMK A01 T10571115  RH  064%=      5-min Rain = 0
KFL1 131042Z 03003KT M06/M12 A3019 RMK A01 T10591116  RH  064%=      5-min Rain = 0
KFL1 131043Z 03003KT M06/M12 A3019 RMK A01 T10571115  RH  064%=      5-min Rain = 0
KFL1 131044Z 03003KT M06/M11 A3019 RMK A01 T10551114  RH  063%=      5-min Rain = 0
KFL1 131045Z 04003KT M05/M12 A3019 RMK A01 T10541115  RH  062%=      5-min Rain = 0
KFL1 131046Z 03004KT M05/M12 A3019 RMK A01 T10541115  RH  062%=      5-min Rain = 0
KFL1 131047Z 03005KT M06/M12 A3019 RMK A01 T10561117  RH  062%=      5-min Rain = 0
KFL1 131048Z 03004KT M06/M12 A3019 RMK A01 T10561117  RH  062%=      5-min Rain = 0
KFL1 131049Z 03003KT M05/M12 A3019 RMK A01 T10531115  RH  062%=      5-min Rain = 0
KFL1 131050Z 04002KT M05/M12 A3019 RMK A01 T10541116  RH  062%=      5-min Rain = 0
KFL1 131051Z 04002KT M06/M12 A3019 RMK A01 T10561118  RH  062%=      5-min Rain = 0
KFL1 131052Z 04002KT M06/M12 A3019 RMK A01 T10591120  RH  062%=      5-min Rain = 0
KFL1 131053Z 04002KT M06/M12 A3019 RMK A01 T10621119  RH  064%=      5-min Rain = 0
KFL1 131054Z 03003KT M06/M12 A3019 RMK A01 T10621117  RH  065%=      5-min Rain = 0
KFL1 131055Z 03002KT M06/M12 A3019 RMK A01 T10641118  RH  066%=      5-min Rain = 0
KFL1 131056Z 04001KT M07/M12 A3019 RMK A01 T10651118  RH  066%=      5-min Rain = 0
KFL1 131057Z 03001KT M06/M12 A3019 RMK A01 T10631116  RH  066%=      5-min Rain = 0
KFL1 131058Z 04002KT M06/M11 A3019 RMK A01 T10581113  RH  065%=      5-min Rain = 0
KFL1 131059Z 03002KT M06/M12 A3019 RMK A01 T10601117  RH  064%=      5-min Rain = 0
KFL1 131100Z 02003KT M06/M12 A3019 RMK A01 T10631120  RH  064%=      5-min Rain = 0
KFL1 131101Z 02004KT M07/M12 A3019 RMK A01 T10671121  RH  066%=      5-min Rain = 0
KFL1 131102Z 02004KT M07/M12 A3019 RMK A01 T10661118  RH  066%=      5-min Rain = 0
KFL1 131103Z 02003KT M06/M12 A3019 RMK A01 T10631116  RH  066%=      5-min Rain = 0
KFL1 131104Z 02002KT M06/M12 A3019 RMK A01 T10641117  RH  066%=      5-min Rain = 0
KFL1 131105Z 01002KT M06/M12 A3019 RMK A01 T10641118  RH  066%=      5-min Rain = 0
KFL1 131106Z 01003KT M07/M12 A3019 RMK A01 T10691121  RH  067%=      5-min Rain = 0
KFL1 131107Z 02003KT M07/M12 A3019 RMK A01 T10701119  RH  068%=      5-min Rain = 0
KFL1 131108Z 02003KT M07/M12 A3019 RMK A01 T10671115  RH  068%=      5-min Rain = 0
KFL1 131109Z 03003KT M07/M11 A3019 RMK A01 T10651114  RH  068%=      5-min Rain = 0
KFL1 131110Z 02004KT M06/M11 A3019 RMK A01 T10611112  RH  067%=      5-min Rain = 0
KFL1 131111Z 02004KT M06/M11 A3019 RMK A01 T10581112  RH  066%=      5-min Rain = 0
KFL1 131112Z 01004KT M06/M11 A3019 RMK A01 T10581113  RH  065%=      5-min Rain = 0
KFL1 131113Z 01003KT M06/M12 A3019 RMK A01 T10621116  RH  065%=      5-min Rain = 0
KFL1 131114Z 01002KT M06/M12 A3019 RMK A01 T10641118  RH  066%=      5-min Rain = 0
KFL1 131115Z 01002KT M07/M12 A3019 RMK A01 T10661118  RH  066%=      5-min Rain = 0
KFL1 131116Z 00002KT M07/M12 A3019 RMK A01 T10681118  RH  067%=      5-min Rain = 0
KFL1 131117Z 36002KT M07/M12 A3019 RMK A01 T10711119  RH  068%=      5-min Rain = 0
KFL1 131118Z 35001KT M07/M12 A3019 RMK A01 T10741120  RH  070%=      5-min Rain = 0
KFL1 131119Z 33001KT M08/M12 A3019 RMK A01 T10761120  RH  071%=      5-min Rain = 0
KFL1 131120Z 31001KT M08/M12 A3019 RMK A01 T10751119  RH  071%=      5-min Rain = 0
KFL1 131121Z 32001KT M08/M12 A3019 RMK A01 T10751118  RH  071%=      5-min Rain = 0
KFL1 131122Z 33002KT M08/M12 A3019 RMK A01 T10761119  RH  072%=      5-min Rain = 0
KFL1 131123Z 32001KT M08/M12 A3019 RMK A01 T10771118  RH  072%=      5-min Rain = 0
KFL1 131124Z 32001KT M08/M12 A3019 RMK A01 T10761117  RH  072%=      5-min Rain = 0
KFL1 131125Z 32001KT M07/M12 A3019 RMK A01 T10741116  RH  072%=      5-min Rain = 0
KFL1 131126Z 35001KT M07/M11 A3019 RMK A01 T10701114  RH  071%=      5-min Rain = 0
KFL1 131127Z 03002KT M07/M12 A3019 RMK A01 T10691115  RH  070%=      5-min Rain = 0
KFL1 131128Z 06002KT M07/M12 A3019 RMK A01 T10681115  RH  069%=      5-min Rain = 0
KFL1 131129Z 05001KT M06/M11 A3019 RMK A01 T10631113  RH  068%=      5-min Rain = 0
KFL1 131130Z 05002KT M06/M11 A3019 RMK A01 T10571111  RH  065%=      5-min Rain = 0
KFL1 131131Z 06004KT M05/M11 A3019 RMK A01 T10531112  RH  063%=      5-min Rain = 0
KFL1 131132Z 05005KT M05/M12 A3019 RMK A01 T10511115  RH  061%=      5-min Rain = 0
KFL1 131133Z 05005KT M05/M12 A3019 RMK A01 T10501117  RH  059%=      5-min Rain = 0
KFL1 131134Z 05005KT M05/M12 A3019 RMK A01 T10471118  RH  058%=      5-min Rain = 0
KFL1 131135Z 05004KT M05/M12 A3019 RMK A01 T10451119  RH  056%=      5-min Rain = 0
KFL1 131136Z 04004KT M04/M12 A3019 RMK A01 T10421118  RH  056%=      5-min Rain = 0
KFL1 131137Z 05005KT M04/M12 A3019 RMK A01 T10391116  RH  055%=      5-min Rain = 0
KFL1 131138Z 04005KT M04/M12 A3019 RMK A01 T10381117  RH  054%=      5-min Rain = 0
KFL1 131139Z 04004KT M04/M12 A3019 RMK A01 T10361116  RH  054%=      5-min Rain = 0
KFL1 131140Z 04004KT M04/M12 A3018 RMK A01 T10441122  RH  055%=      5-min Rain = 0
KFL1 131141Z 03005KT M05/M12 A3019 RMK A01 T10471121  RH  056%=      5-min Rain = 0
KFL1 131142Z 03004KT M05/M12 A3018 RMK A01 T10531122  RH  059%=      5-min Rain = 0
KFL1 131143Z 03003KT M06/M12 A3018 RMK A01 T10581121  RH  061%=      5-min Rain = 0
KFL1 131144Z 02003KT M06/M12 A3018 RMK A01 T10641122  RH  063%=      5-min Rain = 0
KFL1 131145Z 02002KT M07/M12 A3018 RMK A01 T10681122  RH  066%=      5-min Rain = 0
KFL1 131146Z 01002KT M07/M12 A3018 RMK A01 T10701121  RH  067%=      5-min Rain = 0
KFL1 131147Z 00002KT M07/M12 A3018 RMK A01 T10721120  RH  068%=      5-min Rain = 0
KFL1 131148Z 00003KT M07/M12 A3018 RMK A01 T10731120  RH  069%=      5-min Rain = 0
KFL1 131149Z 01003KT M07/M12 A3018 RMK A01 T10741120  RH  070%=      5-min Rain = 0
KFL1 131150Z 01002KT M07/M12 A3018 RMK A01 T10731118  RH  070%=      5-min Rain = 0
KFL1 131151Z 01002KT M07/M12 A3018 RMK A01 T10721117  RH  070%=      5-min Rain = 0
KFL1 131152Z 01002KT M07/M12 A3018 RMK A01 T10731119  RH  070%=      5-min Rain = 0
KFL1 131153Z 01002KT M08/M12 A3018 RMK A01 T10751121  RH  070%=      5-min Rain = 0
KFL1 131154Z 00002KT M08/M12 A3018 RMK A01 T10771122  RH  070%=      5-min Rain = 0
KFL1 131155Z 36002KT M08/M12 A3018 RMK A01 T10781121  RH  071%=      5-min Rain = 0
KFL1 131156Z 01003KT M08/M12 A3018 RMK A01 T10771119  RH  072%=      5-min Rain = 0
KFL1 131157Z 05005KT M08/M12 A3019 RMK A01 T10771119  RH  072%=      5-min Rain = 0
KFL1 131158Z 05006KT M07/M12 A3019 RMK A01 T10721116  RH  071%=      5-min Rain = 0
KFL1 131159Z 05007KT M07/M12 A3019 RMK A01 T10661116  RH  068%=      5-min Rain = 0
KFL1 131200Z 05008KT M06/M12 A3019 RMK A01 T10611117  RH  064%=      5-min Rain = 0
KFL1 131201Z 05007KT M06/M12 A3019 RMK A01 T10581120  RH  062%=      5-min Rain = 0
KFL1 131202Z 04008KT M06/M12 A3019 RMK A01 T10561122  RH  060%=      5-min Rain = 0
KFL1 131203Z 04007KT M05/M12 A3019 RMK A01 T10511121  RH  058%=      5-min Rain = 0
KFL1 131204Z 05007KT M05/M12 A3018 RMK A01 T10461120  RH  056%=      5-min Rain = 0
KFL1 131205Z 05007KT M04/M12 A3018 RMK A01 T10401119  RH  054%=      5-min Rain = 0
KFL1 131206Z 05006KT M04/M12 A3018 RMK A01 T10351120  RH  052%=      5-min Rain = 0
KFL1 131207Z 05006KT M03/M12 A3018 RMK A01 T10311121  RH  050%=      5-min Rain = 0
KFL1 131208Z 05006KT M03/M12 A3018 RMK A01 T10281120  RH  049%=      5-min Rain = 0
KFL1 131209Z 04005KT M03/M12 A3018 RMK A01 T10271121  RH  048%=      5-min Rain = 0
KFL1 131210Z 04005KT M02/M12 A3018 RMK A01 T10241120  RH  048%=      5-min Rain = 0
KFL1 131211Z 04004KT M02/M12 A3018 RMK A01 T10231119  RH  048%=      5-min Rain = 0
KFL1 131212Z 04005KT M03/M12 A3018 RMK A01 T10251120  RH  048%=      5-min Rain = 0
KFL1 131213Z 04005KT M03/M12 A3018 RMK A01 T10291121  RH  049%=      5-min Rain = 0
KFL1 131214Z 05003KT M03/M12 A3018 RMK A01 T10321122  RH  050%=      5-min Rain = 0
KFL1 131215Z 05002KT M04/M12 A3018 RMK A01 T10351122  RH  051%=      5-min Rain = 0
KFL1 131216Z 05002KT M04/M12 A3017 RMK A01 T10381123  RH  052%=      5-min Rain = 0
KFL1 131217Z 05001KT M04/M13 A3017 RMK A01 T10441127  RH  053%=      5-min Rain = 0
KFL1 131218Z 06001KT M05/M13 A3017 RMK A01 T10511128  RH  055%=      5-min Rain = 0
KFL1 131219Z 04002KT M06/M13 A3017 RMK A01 T10571127  RH  057%=      5-min Rain = 0
KFL1 131220Z 03002KT M06/M13 A3017 RMK A01 T10621128  RH  060%=      5-min Rain = 0
KFL1 131221Z 04003KT M06/M13 A3017 RMK A01 T10641126  RH  061%=      5-min Rain = 0
KFL1 131222Z 03004KT M06/M12 A3018 RMK A01 T10611123  RH  062%=      5-min Rain = 0
KFL1 131223Z 03005KT M06/M12 A3018 RMK A01 T10581122  RH  061%=      5-min Rain = 0
KFL1 131224Z 03004KT M06/M12 A3018 RMK A01 T10571122  RH  060%=      5-min Rain = 0
KFL1 131225Z 04004KT M06/M13 A3018 RMK A01 T10601125  RH  060%=      5-min Rain = 0
KFL1 131226Z 05004KT M06/M13 A3018 RMK A01 T10641127  RH  061%=      5-min Rain = 0
KFL1 131227Z 04005KT M06/M12 A3018 RMK A01 T10621124  RH  062%=      5-min Rain = 0
KFL1 131228Z 04006KT M06/M12 A3018 RMK A01 T10571122  RH  060%=      5-min Rain = 0
KFL1 131229Z 03006KT M05/M12 A3018 RMK A01 T10481121  RH  057%=      5-min Rain = 0
KFL1 131230Z 04007KT M04/M12 A3018 RMK A01 T10421123  RH  053%=      5-min Rain = 0
KFL1 131231Z 05006KT M04/M13 A3017 RMK A01 T10381125  RH  051%=      5-min Rain = 0
KFL1 131232Z 03005KT M04/M13 A3018 RMK A01 T10371128  RH  049%=      5-min Rain = 0
KFL1 131233Z 03006KT M04/M13 A3018 RMK A01 T10361130  RH  048%=      5-min Rain = 0
KFL1 131234Z 03006KT M04/M13 A3018 RMK A01 T10361130  RH  048%=      5-min Rain = 0
KFL1 131235Z 04009KT M04/M13 A3017 RMK A01 T10431132  RH  050%=      5-min Rain = 0
KFL1 131236Z 04006KT M05/M13 A3017 RMK A01 T10481134  RH  051%=      5-min Rain = 0
KFL1 131237Z 03006KT M05/M13 A3018 RMK A01 T10461132  RH  051%=      5-min Rain = 0
KFL1 131238Z 04008KT M04/M13 A3018 RMK A01 T10411130  RH  050%=      5-min Rain = 0
KFL1 131239Z 05006KT M04/M13 A3018 RMK A01 T10391133  RH  048%=      5-min Rain = 0
KFL1 131240Z 04005KT M03/M13 A3018 RMK A01 T10341132  RH  047%=      5-min Rain = 0
KFL1 131241Z 05005KT M03/M13 A3018 RMK A01 T10321133  RH  045%=      5-min Rain = 0
KFL1 131242Z 04006KT M03/M14 A3018 RMK A01 T10301135  RH  044%=      5-min Rain = 0
KFL1 131243Z 04007KT M03/M13 A3018 RMK A01 T10291134  RH  044%=      5-min Rain = 0
KFL1 131244Z 04007KT M03/M13 A3017 RMK A01 T10281134  RH  044%=      5-min Rain = 0
KFL1 131245Z 04008KT M03/M14 A3017 RMK A01 T10291136  RH  043%=      5-min Rain = 0
KFL1 131246Z 04007KT M03/M14 A3017 RMK A01 T10271136  RH  043%=      5-min Rain = 0
KFL1 131247Z 03007KT M03/M14 A3017 RMK A01 T10261138  RH  042%=      5-min Rain = 0
KFL1 131248Z 04006KT M02/M14 A3017 RMK A01 T10231136  RH  042%=      5-min Rain = 0
KFL1 131249Z 03005KT M02/M14 A3017 RMK A01 T10221136  RH  041%=      5-min Rain = 0
KFL1 131250Z 03004KT M02/M14 A3017 RMK A01 T10231135  RH  042%=      5-min Rain = 0
KFL1 131251Z 04004KT M03/M14 A3017 RMK A01 T10311135  RH  044%=      5-min Rain = 0
KFL1 131252Z 03005KT M04/M14 A3017 RMK A01 T10391135  RH  047%=      5-min Rain = 0
KFL1 131253Z 03006KT M04/M14 A3017 RMK A01 T10441135  RH  049%=      5-min Rain = 0
KFL1 131254Z 04006KT M05/M14 A3017 RMK A01 T10461135  RH  050%=      5-min Rain = 0
KFL1 131255Z 04006KT M04/M13 A3017 RMK A01 T10411133  RH  049%=      5-min Rain = 0
KFL1 131256Z 04006KT M03/M13 A3017 RMK A01 T10341132  RH  047%=      5-min Rain = 0
KFL1 131257Z 03005KT M03/M13 A3017 RMK A01 T10291132  RH  045%=      5-min Rain = 0
KFL1 131258Z 03005KT M03/M13 A3017 RMK A01 T10331133  RH  046%=      5-min Rain = 0
KFL1 131259Z 04005KT M04/M14 A3017 RMK A01 T10441137  RH  048%=      5-min Rain = 0
KFL1 131300Z 05004KT M05/M14 A3017 RMK A01 T10481135  RH  051%=      5-min Rain = 0
KFL1 131301Z 03004KT M05/M13 A3017 RMK A01 T10531134  RH  053%=      5-min Rain = 0
KFL1 131302Z 03004KT M06/M13 A3017 RMK A01 T10601134  RH  056%=      5-min Rain = 0
KFL1 131303Z 04004KT M07/M14 A3017 RMK A01 T10651135  RH  058%=      5-min Rain = 0
KFL1 131304Z 05004KT M07/M13 A3017 RMK A01 T10661134  RH  059%=      5-min Rain = 0
KFL1 131305Z 06004KT M07/M13 A3017 RMK A01 T10691134  RH  059%=      5-min Rain = 0
KFL1 131306Z 04005KT M07/M13 A3017 RMK A01 T10681133  RH  060%=      5-min Rain = 0
KFL1 131307Z 05006KT M07/M13 A3017 RMK A01 T10651132  RH  059%=      5-min Rain = 0
KFL1 131308Z 04006KT M06/M13 A3017 RMK A01 T10571131  RH  056%=      5-min Rain = 0
KFL1 131309Z 03004KT M05/M13 A3017 RMK A01 T10531132  RH  054%=      5-min Rain = 0
KFL1 131310Z 03004KT M06/M14 A3017 RMK A01 T10591136  RH  054%=      5-min Rain = 0
KFL1 131311Z 05005KT M06/M14 A3017 RMK A01 T10621136  RH  056%=      5-min Rain = 0
KFL1 131312Z 05006KT M06/M14 A3017 RMK A01 T10631136  RH  056%=      5-min Rain = 0
KFL1 131313Z 04006KT M06/M13 A3017 RMK A01 T10571134  RH  055%=      5-min Rain = 0
KFL1 131314Z 04006KT M05/M13 A3016 RMK A01 T10511133  RH  052%=      5-min Rain = 0
KFL1 131315Z 04006KT M04/M13 A3017 RMK A01 T10431131  RH  050%=      5-min Rain = 0
KFL1 131316Z 04006KT M04/M13 A3017 RMK A01 T10401134  RH  048%=      5-min Rain = 0
KFL1 131317Z 04006KT M04/M13 A3017 RMK A01 T10361133  RH  047%=      5-min Rain = 0
KFL1 131318Z 04006KT M03/M14 A3017 RMK A01 T10331136  RH  045%=      5-min Rain = 0
KFL1 131319Z 05007KT M03/M14 A3017 RMK A01 T10321136  RH  045%=      5-min Rain = 0
KFL1 131320Z 04008KT M03/M14 A3017 RMK A01 T10341137  RH  045%=      5-min Rain = 0
KFL1 131321Z 04009KT M03/M14 A3017 RMK A01 T10341138  RH  045%=      5-min Rain = 0
KFL1 131322Z 04007KT M03/M14 A3017 RMK A01 T10341138  RH  045%=      5-min Rain = 0
KFL1 131323Z 04006KT M04/M14 A3017 RMK A01 T10351139  RH  044%=      5-min Rain = 0
KFL1 131324Z 03006KT M03/M14 A3017 RMK A01 T10341139  RH  044%=      5-min Rain = 0
KFL1 131325Z 03007KT M04/M14 A3017 RMK A01 T10361138  RH  045%=      5-min Rain = 0
KFL1 131326Z 03009KT M04/M14 A3017 RMK A01 T10381139  RH  046%=      5-min Rain = 0
KFL1 131327Z 04010KT M04/M14 A3017 RMK A01 T10371136  RH  046%=      5-min Rain = 0
KFL1 131328Z 05009KT M03/M14 A3017 RMK A01 T10341135  RH  045%=      5-min Rain = 0
KFL1 131329Z 05007KT M03/M14 A3017 RMK A01 T10331137  RH  044%=      5-min Rain = 0
KFL1 131330Z 05007KT M03/M14 A3017 RMK A01 T10321137  RH  044%=      5-min Rain = 0
KFL1 131331Z 05006KT M03/M14 A3017 RMK A01 T10311136  RH  044%=      5-min Rain = 0
KFL1 131332Z 03006KT M03/M14 A3017 RMK A01 T10301135  RH  044%=      5-min Rain = 0
KFL1 131333Z 04006KT M03/M14 A3017 RMK A01 T10281135  RH  044%=      5-min Rain = 0
KFL1 131334Z 05007KT M03/M14 A3017 RMK A01 T10281137  RH  043%=      5-min Rain = 0
KFL1 131335Z 05008KT M03/M14 A3017 RMK A01 T10281137  RH  043%=      5-min Rain = 0
KFL1 131336Z 04006KT M03/M14 A3017 RMK A01 T10301140  RH  043%=      5-min Rain = 0
KFL1 131337Z 05008KT M03/M14 A3017 RMK A01 T10301139  RH  043%=      5-min Rain = 0
KFL1 131338Z 06007KT M03/M14 A3017 RMK A01 T10311138  RH  043%=      5-min Rain = 0
KFL1 131339Z 05005KT M03/M13 A3017 RMK A01 T10291134  RH  044%=      5-min Rain = 0
KFL1 131340Z 06005KT M03/M13 A3017 RMK A01 T10271131  RH  045%=      5-min Rain = 0
KFL1 131341Z 07005KT M03/M13 A3017 RMK A01 T10261129  RH  045%=      5-min Rain = 0
KFL1 131342Z 05004KT M02/M13 A3017 RMK A01 T10231126  RH  045%=      5-min Rain = 0
KFL1 131343Z 02003KT M03/M13 A3017 RMK A01 T10281130  RH  045%=      5-min Rain = 0
KFL1 131344Z 03004KT M04/M14 A3017 RMK A01 T10401136  RH  047%=      5-min Rain = 0
KFL1 131345Z 05005KT M05/M13 A3017 RMK A01 T10461134  RH  050%=      5-min Rain = 0
KFL1 131346Z 06005KT M05/M13 A3017 RMK A01 T10451129  RH  052%=      5-min Rain = 0
KFL1 131347Z 06005KT M04/M12 A3017 RMK A01 T10401124  RH  052%=      5-min Rain = 0
KFL1 131348Z 02003KT M04/M12 A3017 RMK A01 T10351122  RH  051%=      5-min Rain = 0
KFL1 131349Z 04003KT M03/M12 A3017 RMK A01 T10331124  RH  049%=      5-min Rain = 0
KFL1 131350Z 08004KT M04/M13 A3017 RMK A01 T10411131  RH  050%=      5-min Rain = 0
KFL1 131351Z 06003KT M04/M13 A3017 RMK A01 T10411129  RH  050%=      5-min Rain = 0
KFL1 131352Z 03003KT M04/M13 A3017 RMK A01 T10391127  RH  051%=      5-min Rain = 0
KFL1 131353Z 04004KT M04/M13 A3017 RMK A01 T10441129  RH  052%=      5-min Rain = 0
KFL1 131354Z 04004KT M05/M13 A3017 RMK A01 T10491129  RH  054%=      5-min Rain = 0
KFL1 131355Z 03005KT M05/M13 A3017 RMK A01 T10501126  RH  055%=      5-min Rain = 0
KFL1 131356Z 03006KT M05/M13 A3017 RMK A01 T10531128  RH  056%=      5-min Rain = 0
KFL1 131357Z 05005KT M06/M13 A3017 RMK A01 T10551127  RH  057%=      5-min Rain = 0
KFL1 131358Z 06006KT M05/M12 A3017 RMK A01 T10511122  RH  057%=      5-min Rain = 0
KFL1 131359Z 02005KT M04/M12 A3017 RMK A01 T10411118  RH  055%=      5-min Rain = 0
KFL1 131400Z 36004KT M04/M12 A3017 RMK A01 T10351120  RH  052%=      5-min Rain = 0
KFL1 131401Z 03005KT M04/M13 A3017 RMK A01 T10371126  RH  050%=      5-min Rain = 0
KFL1 131402Z 08006KT M04/M13 A3017 RMK A01 T10421130  RH  050%=      5-min Rain = 0
KFL1 131403Z 05004KT M04/M13 A3017 RMK A01 T10391125  RH  051%=      5-min Rain = 0
KFL1 131404Z 35004KT M04/M12 A3017 RMK A01 T10371124  RH  051%=      5-min Rain = 0
KFL1 131405Z 02005KT M04/M13 A3017 RMK A01 T10381126  RH  051%=      5-min Rain = 0
KFL1 131406Z 05007KT M04/M12 A3017 RMK A01 T10381124  RH  051%=      5-min Rain = 0
KFL1 131407Z 06007KT M04/M13 A3017 RMK A01 T10391125  RH  051%=      5-min Rain = 0
KFL1 131408Z 07007KT M04/M12 A3017 RMK A01 T10361124  RH  051%=      5-min Rain = 0
KFL1 131409Z 05005KT M04/M13 A3017 RMK A01 T10351127  RH  049%=      5-min Rain = 0
KFL1 131410Z 03005KT M04/M13 A3017 RMK A01 T10351129  RH  048%=      5-min Rain = 0
KFL1 131411Z 04007KT M03/M13 A3017 RMK A01 T10341127  RH  048%=      5-min Rain = 0
KFL1 131412Z 07006KT M03/M12 A3017 RMK A01 T10301123  RH  049%=      5-min Rain = 0
KFL1 131413Z 04004KT M03/M12 A3017 RMK A01 T10261120  RH  048%=      5-min Rain = 0
KFL1 131414Z 01006KT M02/M12 A3017 RMK A01 T10241123  RH  047%=      5-min Rain = 0
KFL1 131415Z 04005KT M02/M12 A3017 RMK A01 T10231123  RH  046%=      5-min Rain = 0
KFL1 131416Z 05004KT M03/M12 A3017 RMK A01 T10251122  RH  047%=      5-min Rain = 0
KFL1 131417Z 04003KT M02/M12 A3017 RMK A01 T10231118  RH  048%=      5-min Rain = 0
KFL1 131418Z 04004KT M02/M12 A3017 RMK A01 T10201115  RH  048%=      5-min Rain = 0
KFL1 131419Z 04004KT M02/M12 A3017 RMK A01 T10201116  RH  048%=      5-min Rain = 0
KFL1 131420Z 04004KT M02/M11 A3017 RMK A01 T10171113  RH  048%=      5-min Rain = 0
KFL1 131421Z 07004KT M02/M12 A3017 RMK A01 T10201115  RH  048%=      5-min Rain = 0
KFL1 131422Z 07006KT M02/M11 A3017 RMK A01 T10171114  RH  048%=      5-min Rain = 0
KFL1 131423Z 05005KT M01/M11 A3017 RMK A01 T10121112  RH  046%=      5-min Rain = 0
KFL1 131424Z 04006KT M01/M12 A3017 RMK A01 T10131118  RH  045%=      5-min Rain = 0
KFL1 131425Z 07005KT M01/M12 A3017 RMK A01 T10141119  RH  045%=      5-min Rain = 0
KFL1 131426Z 05005KT M01/M12 A3017 RMK A01 T10141119  RH  045%=      5-min Rain = 0
KFL1 131427Z 03004KT M01/M12 A3017 RMK A01 T10131121  RH  044%=      5-min Rain = 0
KFL1 131428Z 07004KT M01/M12 A3017 RMK A01 T10121118  RH  044%=      5-min Rain = 0
KFL1 131429Z 08005KT M01/M12 A3017 RMK A01 T10101116  RH  045%=      5-min Rain = 0
KFL1 131430Z 07005KT M01/M11 A3017 RMK A01 T10051113  RH  044%=      5-min Rain = 0
KFL1 131431Z 05005KT M01/M12 A3017 RMK A01 T10061117  RH  043%=      5-min Rain = 0
KFL1 131432Z 06003KT M00/M12 A3017 RMK A01 T10041116  RH  043%=      5-min Rain = 0
KFL1 131433Z 06004KT M00/M11 A3017 RMK A01 T10011113  RH  043%=      5-min Rain = 0
KFL1 131434Z 06004KT 00/11 A3017 RMK A01 T00000-113  RH  042%=      5-min Rain = 0
KFL1 131435Z 06004KT 00/M11 A3017 RMK A01 T00011114  RH  042%=      5-min Rain = 0
KFL1 131436Z 07004KT 00/M11 A3017 RMK A01 T00021114  RH  042%=      5-min Rain = 0
KFL1 131437Z 09003KT 00/M11 A3017 RMK A01 T00031113  RH  041%=      5-min Rain = 0
KFL1 131438Z 09004KT 00/M11 A3017 RMK A01 T00031113  RH  041%=      5-min Rain = 0
KFL1 131439Z 03003KT 01/M11 A3017 RMK A01 T00061111  RH  041%=      5-min Rain = 0
KFL1 131440Z 07004KT 01/M11 A3017 RMK A01 T00081109  RH  041%=      5-min Rain = 0
KFL1 131441Z 08003KT 01/M11 A3017 RMK A01 T00101108  RH  041%=      5-min Rain = 0
KFL1 131442Z 06002KT 01/M11 A3017 RMK A01 T00111109  RH  040%=      5-min Rain = 0
KFL1 131443Z 08003KT 01/M11 A3017 RMK A01 T00101111  RH  040%=      5-min Rain = 0
KFL1 131444Z 10004KT 01/M11 A3017 RMK A01 T00111111  RH  040%=      5-min Rain = 0
KFL1 131445Z 11003KT 01/M11 A3017 RMK A01 T00111109  RH  040%=      5-min Rain = 0
KFL1 131446Z 09003KT 01/M11 A3017 RMK A01 T00111110  RH  040%=      5-min Rain = 0
KFL1 131447Z 07003KT 01/M11 A3017 RMK A01 T00131110  RH  039%=      5-min Rain = 0
KFL1 131448Z 06002KT 01/M11 A3017 RMK A01 T00131109  RH  040%=      5-min Rain = 0
KFL1 131449Z 06003KT 01/M11 A3017 RMK A01 T00131109  RH  040%=      5-min Rain = 0
KFL1 131450Z 07003KT 01/M11 A3017 RMK A01 T00121111  RH  040%=      5-min Rain = 0
KFL1 131451Z 09003KT 01/M11 A3017 RMK A01 T00111112  RH  039%=      5-min Rain = 0
KFL1 131452Z 09003KT 01/M11 A3017 RMK A01 T00121112  RH  039%=      5-min Rain = 0
KFL1 131453Z 06002KT 01/M11 A3017 RMK A01 T00121112  RH  039%=      5-min Rain = 0
KFL1 131454Z 10001KT 02/M11 A3017 RMK A01 T00151111  RH  039%=      5-min Rain = 0
KFL1 131455Z 13003KT 02/M11 A3017 RMK A01 T00161110  RH  039%=      5-min Rain = 0
KFL1 131456Z 13002KT 02/M11 A3017 RMK A01 T00191108  RH  038%=      5-min Rain = 0
KFL1 131457Z 14001KT 02/M11 A3017 RMK A01 T00191109  RH  038%=      5-min Rain = 0
KFL1 131458Z 15002KT 02/M11 A3017 RMK A01 T00201110  RH  037%=      5-min Rain = 0
KFL1 131459Z 09002KT 02/M11 A3017 RMK A01 T00201111  RH  037%=      5-min Rain = 0
KFL1 131500Z 09002KT 02/M11 A3017 RMK A01 T00211110  RH  037%=      5-min Rain = 0
KFL1 131501Z 09002KT 02/M11 A3018 RMK A01 T00221109  RH  037%=      5-min Rain = 0
KFL1 131502Z 11003KT 02/M11 A3017 RMK A01 T00231109  RH  037%=      5-min Rain = 0
KFL1 131503Z 12002KT 02/M11 A3017 RMK A01 T00231109  RH  037%=      5-min Rain = 0
KFL1 131504Z 11002KT 02/M11 A3017 RMK A01 T00231110  RH  037%=      5-min Rain = 0
KFL1 131505Z 12002KT 03/M11 A3017 RMK A01 T00251107  RH  037%=      5-min Rain = 0
KFL1 131506Z 13002KT 03/M11 A3017 RMK A01 T00271108  RH  036%=      5-min Rain = 0
KFL1 131507Z 13003KT 03/M11 A3017 RMK A01 T00261111  RH  036%=      5-min Rain = 0
KFL1 131508Z 11002KT 03/M11 A3017 RMK A01 T00261110  RH  036%=      5-min Rain = 0
KFL1 131509Z 10003KT 03/M11 A3017 RMK A01 T00261109  RH  036%=      5-min Rain = 0
KFL1 131510Z 10003KT 03/M11 A3018 RMK A01 T00271108  RH  036%=      5-min Rain = 0
KFL1 131511Z 12003KT 03/M11 A3018 RMK A01 T00271108  RH  036%=      5-min Rain = 0
KFL1 131512Z 13002KT 03/M11 A3018 RMK A01 T00311106  RH  036%=      5-min Rain = 0
KFL1 131513Z 10002KT 03/M11 A3018 RMK A01 T00301109  RH  035%=      5-min Rain = 0
KFL1 131514Z 13001KT 03/M11 A3018 RMK A01 T00311109  RH  035%=      5-min Rain = 0
KFL1 131515Z 11001KT 03/M11 A3018 RMK A01 T00301110  RH  035%=      5-min Rain = 0
KFL1 131516Z 13003KT 03/M11 A3017 RMK A01 T00311109  RH  035%=      5-min Rain = 0
KFL1 131517Z 11003KT 03/M11 A3018 RMK A01 T00311111  RH  034%=      5-min Rain = 0
KFL1 131518Z 12003KT 03/M11 A3018 RMK A01 T00311109  RH  035%=      5-min Rain = 0
KFL1 131519Z 13002KT 03/M11 A3018 RMK A01 T00331108  RH  035%=      5-min Rain = 0
KFL1 131520Z 12003KT 03/M11 A3018 RMK A01 T00311109  RH  035%=      5-min Rain = 0
KFL1 131521Z 14002KT 03/M11 A3018 RMK A01 T00331108  RH  035%=      5-min Rain = 0
KFL1 131522Z 14003KT 03/M11 A3018 RMK A01 T00341111  RH  034%=      5-min Rain = 0
KFL1 131523Z 13003KT 03/M11 A3018 RMK A01 T00341112  RH  034%=      5-min Rain = 0
KFL1 131524Z 12003KT 03/M11 A3018 RMK A01 T00321110  RH  034%=      5-min Rain = 0
KFL1 131525Z 10003KT 04/M11 A3018 RMK A01 T00361106  RH  035%=      5-min Rain = 0
KFL1 131526Z 12003KT 04/M11 A3019 RMK A01 T00371106  RH  034%=      5-min Rain = 0
KFL1 131527Z 14003KT 04/M11 A3018 RMK A01 T00371108  RH  034%=      5-min Rain = 0
KFL1 131528Z 12004KT 04/M11 A3018 RMK A01 T00391105  RH  034%=      5-min Rain = 0
KFL1 131529Z 13003KT 04/M11 A3018 RMK A01 T00401110  RH  033%=      5-min Rain = 0
KFL1 131530Z 13003KT 04/M11 A3018 RMK A01 T00371112  RH  033%=      5-min Rain = 0
KFL1 131531Z 13004KT 04/M11 A3018 RMK A01 T00351111  RH  033%=      5-min Rain = 0
KFL1 131532Z 13003KT 04/M11 A3018 RMK A01 T00371111  RH  033%=      5-min Rain = 0
KFL1 131533Z 10002KT 04/M11 A3019 RMK A01 T00381110  RH  033%=      5-min Rain = 0
KFL1 131534Z 09003KT 04/M11 A3019 RMK A01 T00401109  RH  033%=      5-min Rain = 0
KFL1 131535Z 10004KT 04/M11 A3018 RMK A01 T00401109  RH  033%=      5-min Rain = 0
KFL1 131536Z 10004KT 04/M11 A3018 RMK A01 T00391110  RH  033%=      5-min Rain = 0
KFL1 131537Z 12005KT 04/M11 A3018 RMK A01 T00381108  RH  034%=      5-min Rain = 0
KFL1 131538Z 13004KT 04/M11 A3018 RMK A01 T00411105  RH  034%=      5-min Rain = 0
KFL1 131539Z 14003KT 04/M11 A3018 RMK A01 T00441107  RH  032%=      5-min Rain = 0
KFL1 131540Z 11003KT 04/M11 A3018 RMK A01 T00431110  RH  032%=      5-min Rain = 0
KFL1 131541Z 15003KT 05/M11 A3018 RMK A01 T00461107  RH  032%=      5-min Rain = 0
KFL1 131542Z 14004KT 05/M11 A3018 RMK A01 T00471110  RH  031%=      5-min Rain = 0
KFL1 131543Z 15004KT 05/M11 A3018 RMK A01 T00481109  RH  031%=      5-min Rain = 0
KFL1 131544Z 14005KT 05/M11 A3018 RMK A01 T00471111  RH  031%=      5-min Rain = 0
KFL1 131545Z 15005KT 05/M11 A3018 RMK A01 T00481109  RH  031%=      5-min Rain = 0
KFL1 131546Z 15005KT 05/M11 A3018 RMK A01 T00481111  RH  030%=      5-min Rain = 0
KFL1 131547Z 15004KT 05/M11 A3018 RMK A01 T00481112  RH  030%=      5-min Rain = 0
KFL1 131548Z 13004KT 05/M11 A3019 RMK A01 T00501112  RH  030%=      5-min Rain = 0
KFL1 131549Z 14004KT 05/M11 A3018 RMK A01 T00501113  RH  030%=      5-min Rain = 0
KFL1 131550Z 13004KT 05/M11 A3018 RMK A01 T00511111  RH  030%=      5-min Rain = 0
KFL1 131551Z 14002KT 05/M11 A3018 RMK A01 T00521113  RH  029%=      5-min Rain = 0
KFL1 131552Z 15004KT 05/M11 A3018 RMK A01 T00531111  RH  029%=      5-min Rain = 0
KFL1 131553Z 15003KT 05/M11 A3019 RMK A01 T00531111  RH  030%=      5-min Rain = 0
KFL1 131554Z 14004KT 05/M11 A3018 RMK A01 T00541110  RH  029%=      5-min Rain = 0
KFL1 131555Z 14005KT 05/M11 A3018 RMK A01 T00541111  RH  029%=      5-min Rain = 0
KFL1 131556Z 14004KT 05/M11 A3018 RMK A01 T00521114  RH  029%=      5-min Rain = 0
KFL1 131557Z 14005KT 05/M11 A3018 RMK A01 T00541109  RH  030%=      5-min Rain = 0
KFL1 131558Z 15004KT 06/M11 A3018 RMK A01 T00551109  RH  030%=      5-min Rain = 0
KFL1 131559Z 14004KT 06/M11 A3018 RMK A01 T00561110  RH  029%=      5-min Rain = 0
KFL1 131600Z 15005KT 06/M11 A3018 RMK A01 T00571110  RH  029%=      5-min Rain = 0
KFL1 131601Z 15005KT 06/M11 A3019 RMK A01 T00601106  RH  029%=      5-min Rain = 0
KFL1 131602Z 16005KT 06/M11 A3019 RMK A01 T00591107  RH  029%=      5-min Rain = 0
KFL1 131603Z 14005KT 06/M11 A3019 RMK A01 T00601106  RH  029%=      5-min Rain = 0
KFL1 131604Z 14005KT 06/M10 A3019 RMK A01 T00611104  RH  029%=      5-min Rain = 0
KFL1 131605Z 13005KT 06/M11 A3019 RMK A01 T00601105  RH  030%=      5-min Rain = 0
KFL1 131606Z 13005KT 06/M10 A3019 RMK A01 T00601104  RH  030%=      5-min Rain = 0
KFL1 131607Z 12004KT 06/M10 A3019 RMK A01 T00631099  RH  030%=      5-min Rain = 0
KFL1 131608Z 14004KT 07/M10 A3019 RMK A01 T00671099  RH  029%=      5-min Rain = 0
KFL1 131609Z 16006KT 07/M10 A3019 RMK A01 T00681101  RH  029%=      5-min Rain = 0
KFL1 131610Z 16006KT 07/M11 A3019 RMK A01 T00671105  RH  028%=      5-min Rain = 0
KFL1 131611Z 16005KT 06/M11 A3019 RMK A01 T00641107  RH  028%=      5-min Rain = 0
KFL1 131612Z 16006KT 06/M11 A3019 RMK A01 T00631107  RH  029%=      5-min Rain = 0
KFL1 131613Z 16005KT 06/M11 A3019 RMK A01 T00631105  RH  029%=      5-min Rain = 0
KFL1 131614Z 15005KT 06/M11 A3019 RMK A01 T00631105  RH  029%=      5-min Rain = 0
KFL1 131615Z 15005KT 06/M11 A3019 RMK A01 T00621109  RH  028%=      5-min Rain = 0
KFL1 131616Z 15005KT 06/M11 A3019 RMK A01 T00611109  RH  028%=      5-min Rain = 0
KFL1 131617Z 14004KT 06/M11 A3019 RMK A01 T00591109  RH  029%=      5-min Rain = 0
KFL1 131618Z 15003KT 06/M11 A3019 RMK A01 T00581110  RH  029%=      5-min Rain = 0
KFL1 131619Z 15003KT 06/M11 A3019 RMK A01 T00581110  RH  029%=      5-min Rain = 0
KFL1 131620Z 14003KT 06/M11 A3019 RMK A01 T00611107  RH  029%=      5-min Rain = 0
KFL1 131621Z 16003KT 06/M11 A3019 RMK A01 T00591110  RH  028%=      5-min Rain = 0
KFL1 131622Z 17002KT 06/M11 A3019 RMK A01 T00591112  RH  028%=      5-min Rain = 0
KFL1 131623Z 16004KT 06/M11 A3019 RMK A01 T00591113  RH  028%=      5-min Rain = 0
KFL1 131624Z 15004KT 06/M11 A3019 RMK A01 T00581114  RH  028%=      5-min Rain = 0
KFL1 131625Z 15003KT 06/M11 A3019 RMK A01 T00571113  RH  028%=      5-min Rain = 0
KFL1 131626Z 15004KT 06/M11 A3019 RMK A01 T00591112  RH  028%=      5-min Rain = 0
KFL1 131627Z 14005KT 06/M11 A3019 RMK A01 T00601111  RH  028%=      5-min Rain = 0
KFL1 131628Z 15005KT 06/M11 A3019 RMK A01 T00591112  RH  028%=      5-min Rain = 0
KFL1 131629Z 14004KT 06/M11 A3019 RMK A01 T00601113  RH  028%=      5-min Rain = 0
KFL1 131630Z 14004KT 06/M11 A3019 RMK A01 T00631110  RH  028%=      5-min Rain = 0
KFL1 131631Z 15003KT 07/M11 A3019 RMK A01 T00651109  RH  028%=      5-min Rain = 0
KFL1 131632Z 14003KT 07/M11 A3019 RMK A01 T00651110  RH  027%=      5-min Rain = 0
KFL1 131633Z 15004KT 07/M11 A3019 RMK A01 T00651112  RH  027%=      5-min Rain = 0
KFL1 131634Z 14003KT 07/M11 A3019 RMK A01 T00661112  RH  027%=      5-min Rain = 0
KFL1 131635Z 15004KT 07/M11 A3019 RMK A01 T00651111  RH  027%=      5-min Rain = 0
KFL1 131636Z 16004KT 07/M11 A3019 RMK A01 T00661113  RH  027%=      5-min Rain = 0
KFL1 131637Z 16003KT 07/M11 A3018 RMK A01 T00661113  RH  027%=      5-min Rain = 0
KFL1 131638Z 15003KT 07/M11 A3018 RMK A01 T00671112  RH  027%=      5-min Rain = 0
KFL1 131639Z 15003KT 07/M11 A3018 RMK A01 T00681111  RH  027%=      5-min Rain = 0
KFL1 131640Z 14004KT 07/M11 A3019 RMK A01 T00691112  RH  026%=      5-min Rain = 0
KFL1 131641Z 15003KT 07/M11 A3019 RMK A01 T00701110  RH  026%=      5-min Rain = 0
KFL1 131642Z 15003KT 07/M11 A3019 RMK A01 T00711112  RH  026%=      5-min Rain = 0
KFL1 131643Z 12003KT 07/M11 A3019 RMK A01 T00691113  RH  026%=      5-min Rain = 0
KFL1 131644Z 13003KT 07/M11 A3019 RMK A01 T00681112  RH  026%=      5-min Rain = 0
KFL1 131645Z 12004KT 07/M11 A3019 RMK A01 T00691111  RH  027%=      5-min Rain = 0
KFL1 131646Z 12005KT 07/M11 A3019 RMK A01 T00691111  RH  026%=      5-min Rain = 0
KFL1 131647Z 13005KT 07/M11 A3018 RMK A01 T00721106  RH  027%=      5-min Rain = 0
KFL1 131648Z 15005KT 08/M11 A3019 RMK A01 T00771108  RH  026%=      5-min Rain = 0
KFL1 131649Z 15004KT 08/M11 A3019 RMK A01 T00751112  RH  025%=      5-min Rain = 0
KFL1 131650Z 15002KT 07/M11 A3019 RMK A01 T00741112  RH  025%=      5-min Rain = 0
KFL1 131651Z 12002KT 08/M11 A3019 RMK A01 T00761110  RH  025%=      5-min Rain = 0
KFL1 131652Z 15004KT 08/M11 A3019 RMK A01 T00791108  RH  025%=      5-min Rain = 0
KFL1 131653Z 18005KT 08/M11 A3019 RMK A01 T00821110  RH  024%=      5-min Rain = 0
KFL1 131654Z 20004KT 08/M11 A3019 RMK A01 T00811113  RH  024%=      5-min Rain = 0
KFL1 131655Z 18003KT 08/M11 A3019 RMK A01 T00811114  RH  024%=      5-min Rain = 0
KFL1 131656Z 16002KT 08/M12 A3019 RMK A01 T00801115  RH  024%=      5-min Rain = 0
KFL1 131657Z 16002KT 08/M12 A3019 RMK A01 T00791115  RH  024%=      5-min Rain = 0
KFL1 131658Z 18005KT 08/M11 A3019 RMK A01 T00811113  RH  024%=      5-min Rain = 0
KFL1 131659Z 18005KT 08/M12 A3019 RMK A01 T00811116  RH  023%=      5-min Rain = 0
KFL1 131700Z 17004KT 08/M12 A3019 RMK A01 T00801116  RH  024%=      5-min Rain = 0
KFL1 131701Z 17003KT 08/M11 A3019 RMK A01 T00831110  RH  024%=      5-min Rain = 0
KFL1 131702Z 16003KT 08/M11 A3019 RMK A01 T00841112  RH  024%=      5-min Rain = 0
KFL1 131703Z 18003KT 08/M11 A3019 RMK A01 T00841113  RH  023%=      5-min Rain = 0
KFL1 131704Z 20002KT 08/M12 A3019 RMK A01 T00821117  RH  023%=      5-min Rain = 0
KFL1 131705Z 14001KT 08/M12 A3019 RMK A01 T00821116  RH  023%=      5-min Rain = 0
KFL1 131706Z 23002KT 08/M11 A3019 RMK A01 T00831114  RH  023%=      5-min Rain = 0
KFL1 131707Z 15002KT 08/M12 A3019 RMK A01 T00801117  RH  023%=      5-min Rain = 0
KFL1 131708Z 13003KT 08/M12 A3019 RMK A01 T00801118  RH  023%=      5-min Rain = 0
KFL1 131709Z 13003KT 08/M12 A3019 RMK A01 T00801115  RH  024%=      5-min Rain = 0
KFL1 131710Z 13001KT 08/M12 A3019 RMK A01 T00781116  RH  024%=      5-min Rain = 0
KFL1 131711Z 25001KT 08/M11 A3018 RMK A01 T00791114  RH  024%=      5-min Rain = 0
KFL1 131712Z 26001KT 08/M11 A3018 RMK A01 T00811114  RH  024%=      5-min Rain = 0
KFL1 131713Z 21001KT 08/M11 A3018 RMK A01 T00811113  RH  024%=      5-min Rain = 0
KFL1 131714Z 20002KT 09/M11 A3018 RMK A01 T00851109  RH  024%=      5-min Rain = 0
KFL1 131715Z 23002KT 09/M11 A3018 RMK A01 T00861112  RH  023%=      5-min Rain = 0
KFL1 131716Z 22002KT 09/M11 A3019 RMK A01 T00871113  RH  023%=      5-min Rain = 0
KFL1 131717Z 22002KT 08/M12 A3019 RMK A01 T00841115  RH  023%=      5-min Rain = 0
KFL1 131718Z 25003KT 09/M11 A3019 RMK A01 T00851114  RH  023%=      5-min Rain = 0
KFL1 131719Z 25002KT 09/M11 A3018 RMK A01 T00851113  RH  023%=      5-min Rain = 0
KFL1 131720Z 26003KT 09/M11 A3018 RMK A01 T00851112  RH  023%=      5-min Rain = 0
KFL1 131721Z 27002KT 09/M11 A3018 RMK A01 T00881111  RH  023%=      5-min Rain = 0
KFL1 131722Z 22003KT 09/M11 A3018 RMK A01 T00911107  RH  024%=      5-min Rain = 0
KFL1 131723Z 14003KT 10/M11 A3018 RMK A01 T00961107  RH  023%=      5-min Rain = 0
KFL1 131724Z 14002KT 10/M11 A3018 RMK A01 T00971109  RH  022%=      5-min Rain = 0
KFL1 131725Z 17004KT 10/M11 A3018 RMK A01 T00951109  RH  023%=      5-min Rain = 0
KFL1 131726Z 24003KT 09/M11 A3018 RMK A01 T00941107  RH  023%=      5-min Rain = 0
KFL1 131727Z 22006KT 09/M11 A3019 RMK A01 T00921111  RH  023%=      5-min Rain = 0
KFL1 131728Z 20004KT 09/M11 A3019 RMK A01 T00881114  RH  023%=      5-min Rain = 0
KFL1 131729Z 21003KT 09/M12 A3018 RMK A01 T00851116  RH  023%=      5-min Rain = 0
KFL1 131730Z 23002KT 08/M12 A3018 RMK A01 T00841115  RH  023%=      5-min Rain = 0
KFL1 131731Z 17003KT 08/M11 A3018 RMK A01 T00841114  RH  023%=      5-min Rain = 0
KFL1 131732Z 17004KT 09/M11 A3019 RMK A01 T00881107  RH  024%=      5-min Rain = 0
KFL1 131733Z 17002KT 09/M11 A3018 RMK A01 T00941105  RH  023%=      5-min Rain = 0
KFL1 131734Z 15003KT 10/M10 A3018 RMK A01 T00971104  RH  023%=      5-min Rain = 0
KFL1 131735Z 19003KT 10/M10 A3018 RMK A01 T01001101  RH  023%=      5-min Rain = 0
KFL1 131736Z 23005KT 10/M11 A3018 RMK A01 T01001105  RH  022%=      5-min Rain = 0
KFL1 131737Z 22003KT 10/M11 A3018 RMK A01 T00961110  RH  022%=      5-min Rain = 0
KFL1 131738Z 22005KT 09/M11 A3018 RMK A01 T00941110  RH  023%=      5-min Rain = 0
KFL1 131739Z 20005KT 09/M11 A3018 RMK A01 T00931110  RH  023%=      5-min Rain = 0
KFL1 131740Z 22004KT 09/M11 A3018 RMK A01 T00931109  RH  023%=      5-min Rain = 0
KFL1 131741Z 23005KT 10/M11 A3018 RMK A01 T00951105  RH  023%=      5-min Rain = 0
KFL1 131742Z 21006KT 10/M10 A3018 RMK A01 T01001101  RH  023%=      5-min Rain = 0
KFL1 131743Z 21006KT 10/M11 A3018 RMK A01 T00991107  RH  022%=      5-min Rain = 0
KFL1 131744Z 20006KT 10/M11 A3018 RMK A01 T00981107  RH  022%=      5-min Rain = 0
KFL1 131745Z 21006KT 10/M11 A3018 RMK A01 T00981107  RH  022%=      5-min Rain = 0
KFL1 131746Z 22006KT 10/M11 A3018 RMK A01 T00971106  RH  023%=      5-min Rain = 0
KFL1 131747Z 23003KT 10/M11 A3018 RMK A01 T00981106  RH  023%=      5-min Rain = 0
KFL1 131748Z 23003KT 10/M11 A3018 RMK A01 T00951110  RH  022%=      5-min Rain = 0
KFL1 131749Z 23002KT 09/M11 A3018 RMK A01 T00931110  RH  023%=      5-min Rain = 0
KFL1 131750Z 21004KT 10/M10 A3018 RMK A01 T00961104  RH  023%=      5-min Rain = 0
KFL1 131751Z 17005KT 10/M10 A3018 RMK A01 T00981103  RH  023%=      5-min Rain = 0
KFL1 131752Z 18005KT 10/M10 A3018 RMK A01 T01001104  RH  023%=      5-min Rain = 0
KFL1 131753Z 20003KT 10/M10 A3018 RMK A01 T00991104  RH  023%=      5-min Rain = 0
KFL1 131754Z 23003KT 10/M10 A3018 RMK A01 T01031098  RH  023%=      5-min Rain = 0
KFL1 131755Z 21004KT 11/M10 A3018 RMK A01 T01071097  RH  023%=      5-min Rain = 0
KFL1 131756Z 17005KT 11/M10 A3018 RMK A01 T01071101  RH  022%=      5-min Rain = 0
KFL1 131757Z 17004KT 11/M10 A3018 RMK A01 T01091099  RH  022%=      5-min Rain = 0
KFL1 131758Z 15005KT 11/M10 A3018 RMK A01 T01051102  RH  022%=      5-min Rain = 0
KFL1 131759Z 18003KT 10/M10 A3018 RMK A01 T01031103  RH  022%=      5-min Rain = 0
KFL1 131800Z 22005KT 10/M10 A3017 RMK A01 T01021104  RH  022%=      5-min Rain = 0
KFL1 131801Z 23005KT 10/M10 A3017 RMK A01 T01011104  RH  022%=      5-min Rain = 0
KFL1 131802Z 23003KT 10/M10 A3017 RMK A01 T01011102  RH  023%=      5-min Rain = 0
KFL1 131803Z 20005KT 10/M10 A3017 RMK A01 T01031100  RH  023%=      5-min Rain = 0
KFL1 131804Z 21006KT 10/M10 A3017 RMK A01 T01041099  RH  023%=      5-min Rain = 0
KFL1 131805Z 23005KT 10/M10 A3017 RMK A01 T01031101  RH  023%=      5-min Rain = 0
KFL1 131806Z 24005KT 10/M10 A3017 RMK A01 T01041102  RH  022%=      5-min Rain = 0
KFL1 131807Z 22003KT 10/M10 A3017 RMK A01 T01021104  RH  022%=      5-min Rain = 0
KFL1 131808Z 21003KT 10/M11 A3017 RMK A01 T00981107  RH  023%=      5-min Rain = 0
KFL1 131809Z 17004KT 10/M10 A3017 RMK A01 T00961104  RH  023%=      5-min Rain = 0
KFL1 131810Z 20006KT 10/M10 A3017 RMK A01 T01011099  RH  023%=      5-min Rain = 0
KFL1 131811Z 20006KT 10/M10 A3017 RMK A01 T01041100  RH  023%=      5-min Rain = 0
KFL1 131812Z 17005KT 11/M10 A3017 RMK A01 T01061099  RH  023%=      5-min Rain = 0
KFL1 131813Z 22005KT 11/M10 A3017 RMK A01 T01081098  RH  022%=      5-min Rain = 0
KFL1 131814Z 23007KT 11/M10 A3017 RMK A01 T01091101  RH  022%=      5-min Rain = 0
KFL1 131815Z 23007KT 11/M10 A3017 RMK A01 T01061102  RH  022%=      5-min Rain = 0
KFL1 131816Z 24003KT 10/M11 A3017 RMK A01 T01011105  RH  022%=      5-min Rain = 0
KFL1 131817Z 20002KT 10/M11 A3017 RMK A01 T01001105  RH  022%=      5-min Rain = 0
KFL1 131818Z 19004KT 10/M10 A3017 RMK A01 T01021101  RH  023%=      5-min Rain = 0
KFL1 131819Z 17004KT 11/M10 A3017 RMK A01 T01061098  RH  023%=      5-min Rain = 0
KFL1 131820Z 16005KT 11/M10 A3017 RMK A01 T01061099  RH  022%=      5-min Rain = 0
KFL1 131821Z 18005KT 11/M10 A3017 RMK A01 T01071101  RH  022%=      5-min Rain = 0
KFL1 131822Z 22006KT 11/M10 A3017 RMK A01 T01091098  RH  022%=      5-min Rain = 0
KFL1 131823Z 21006KT 11/M10 A3017 RMK A01 T01071099  RH  023%=      5-min Rain = 0
KFL1 131824Z 23008KT 11/M10 A3017 RMK A01 T01051099  RH  023%=      5-min Rain = 0
KFL1 131825Z 23007KT 10/M10 A3017 RMK A01 T01031101  RH  023%=      5-min Rain = 0
KFL1 131826Z 22005KT 10/M10 A3017 RMK A01 T01011101  RH  023%=      5-min Rain = 0
KFL1 131827Z 21006KT 10/M10 A3017 RMK A01 T01031098  RH  023%=      5-min Rain = 0
KFL1 131828Z 23005KT 10/M10 A3017 RMK A01 T01031100  RH  023%=      5-min Rain = 0
KFL1 131829Z 20003KT 10/M10 A3017 RMK A01 T01021100  RH  023%=      5-min Rain = 0
KFL1 131830Z 20006KT 10/M10 A3017 RMK A01 T01041100  RH  023%=      5-min Rain = 0
KFL1 131831Z 21008KT 11/M10 A3017 RMK A01 T01061099  RH  023%=      5-min Rain = 0
KFL1 131832Z 21006KT 11/M10 A3017 RMK A01 T01071099  RH  023%=      5-min Rain = 0
KFL1 131833Z 20004KT 11/M10 A3017 RMK A01 T01081100  RH  022%=      5-min Rain = 0
KFL1 131834Z 18005KT 10/M10 A3017 RMK A01 T01041104  RH  022%=      5-min Rain = 0
KFL1 131835Z 19006KT 11/M10 A3017 RMK A01 T01061098  RH  023%=      5-min Rain = 0
KFL1 131836Z 22006KT 11/M10 A3017 RMK A01 T01101097  RH  022%=      5-min Rain = 0
KFL1 131837Z 24004KT 11/M10 A3017 RMK A01 T01091098  RH  022%=      5-min Rain = 0
KFL1 131838Z 26004KT 11/M10 A3017 RMK A01 T01081101  RH  022%=      5-min Rain = 0
KFL1 131839Z 26004KT 11/M10 A3016 RMK A01 T01051104  RH  022%=      5-min Rain = 0
KFL1 131840Z 23004KT 11/M10 A3016 RMK A01 T01061100  RH  023%=      5-min Rain = 0
KFL1 131841Z 22006KT 11/M10 A3016 RMK A01 T01061100  RH  022%=      5-min Rain = 0
KFL1 131842Z 21006KT 10/M10 A3016 RMK A01 T01031103  RH  022%=      5-min Rain = 0
KFL1 131843Z 22006KT 10/M11 A3016 RMK A01 T01001105  RH  023%=      5-min Rain = 0
KFL1 131844Z 21005KT 10/M10 A3016 RMK A01 T01001100  RH  023%=      5-min Rain = 0
KFL1 131845Z 19005KT 10/M10 A3016 RMK A01 T01041097  RH  023%=      5-min Rain = 0
KFL1 131846Z 22007KT 11/M10 A3016 RMK A01 T01061096  RH  023%=      5-min Rain = 0
KFL1 131847Z 24005KT 11/M10 A3016 RMK A01 T01071097  RH  023%=      5-min Rain = 0
KFL1 131848Z 24004KT 11/M10 A3016 RMK A01 T01081098  RH  023%=      5-min Rain = 0
KFL1 131849Z 22004G9KT 11/M10 A3016 RMK A01 T01111096  RH  022%=      5-min Rain = 0
KFL1 131850Z 24006KT 11/M09 A3016 RMK A01 T01131091  RH  023%=      5-min Rain = 0
KFL1 131851Z 22004KT 12/M09 A3016 RMK A01 T01161091  RH  023%=      5-min Rain = 0
KFL1 131852Z 23004KT 11/M10 A3016 RMK A01 T01121098  RH  022%=      5-min Rain = 0
KFL1 131853Z 20004KT 11/M10 A3016 RMK A01 T01081100  RH  022%=      5-min Rain = 0
KFL1 131854Z 15005KT 11/M10 A3015 RMK A01 T01101096  RH  023%=      5-min Rain = 0
KFL1 131855Z 16005KT 12/M09 A3015 RMK A01 T01161093  RH  022%=      5-min Rain = 0
KFL1 131856Z 17007KT 12/M10 A3015 RMK A01 T01161097  RH  022%=      5-min Rain = 0
KFL1 131857Z 17004KT 11/M10 A3015 RMK A01 T01141097  RH  022%=      5-min Rain = 0
KFL1 131858Z 19005KT 11/M10 A3015 RMK A01 T01131097  RH  022%=      5-min Rain = 0
KFL1 131859Z 20006KT 11/M10 A3015 RMK A01 T01121097  RH  022%=      5-min Rain = 0
KFL1 131900Z 22005KT 11/M10 A3015 RMK A01 T01121097  RH  022%=      5-min Rain = 0
KFL1 131901Z 22006KT 11/M10 A3015 RMK A01 T01121096  RH  022%=      5-min Rain = 0
KFL1 131902Z 22007KT 11/M10 A3015 RMK A01 T01121095  RH  022%=      5-min Rain = 0
KFL1 131903Z 21008KT 11/M09 A3015 RMK A01 T01131094  RH  022%=      5-min Rain = 0
KFL1 131904Z 21009KT 12/M09 A3015 RMK A01 T01171091  RH  022%=      5-min Rain = 0
KFL1 131905Z 19007KT 12/M09 A3015 RMK A01 T01181094  RH  022%=      5-min Rain = 0
KFL1 131906Z 18009KT 12/M10 A3015 RMK A01 T01171096  RH  022%=      5-min Rain = 0
KFL1 131907Z 19005KT 12/M10 A3014 RMK A01 T01161097  RH  022%=      5-min Rain = 0
KFL1 131908Z 17008KT 12/M10 A3014 RMK A01 T01151099  RH  021%=      5-min Rain = 0
KFL1 131909Z 18008KT 11/M10 A3014 RMK A01 T01131100  RH  021%=      5-min Rain = 0
KFL1 131910Z 18007KT 11/M10 A3014 RMK A01 T01131099  RH  022%=      5-min Rain = 0
KFL1 131911Z 20006KT 11/M10 A3014 RMK A01 T01121100  RH  021%=      5-min Rain = 0
KFL1 131912Z 20005KT 11/M10 A3014 RMK A01 T01111099  RH  022%=      5-min Rain = 0
KFL1 131913Z 19005KT 11/M10 A3014 RMK A01 T01131098  RH  022%=      5-min Rain = 0
KFL1 131914Z 18006KT 12/M10 A3014 RMK A01 T01161095  RH  022%=      5-min Rain = 0
KFL1 131915Z 22007KT 12/M10 A3014 RMK A01 T01171095  RH  022%=      5-min Rain = 0
KFL1 131916Z 25007KT 12/M09 A3014 RMK A01 T01201093  RH  022%=      5-min Rain = 0
KFL1 131917Z 24006G11KT 12/M09 A3014 RMK A01 T01231092  RH  021%=      5-min Rain = 0
KFL1 131918Z 21006KT 12/M09 A3014 RMK A01 T01221094  RH  021%=      5-min Rain = 0
KFL1 131919Z 20004KT 12/M10 A3014 RMK A01 T01181098  RH  021%=      5-min Rain = 0
KFL1 131920Z 25007KT 12/M10 A3014 RMK A01 T01181098  RH  021%=      5-min Rain = 0
KFL1 131921Z 25008KT 12/M10 A3014 RMK A01 T01201095  RH  021%=      5-min Rain = 0
KFL1 131922Z 22007G12KT 12/M10 A3014 RMK A01 T01181098  RH  021%=      5-min Rain = 0
KFL1 131923Z 23009KT 12/M10 A3014 RMK A01 T01171098  RH  021%=      5-min Rain = 0
KFL1 131924Z 22008KT 12/M10 A3014 RMK A01 T01181096  RH  021%=      5-min Rain = 0
KFL1 131925Z 23007KT 12/M10 A3014 RMK A01 T01191097  RH  021%=      5-min Rain = 0
KFL1 131926Z 24010KT 12/M10 A3014 RMK A01 T01181099  RH  021%=      5-min Rain = 0
KFL1 131927Z 23010KT 12/M10 A3013 RMK A01 T01171098  RH  021%=      5-min Rain = 0
KFL1 131928Z 23007KT 12/M10 A3013 RMK A01 T01191095  RH  021%=      5-min Rain = 0
KFL1 131929Z 23009KT 12/M10 A3013 RMK A01 T01201098  RH  021%=      5-min Rain = 0
KFL1 131930Z 23010KT 12/M10 A3013 RMK A01 T01171099  RH  021%=      5-min Rain = 0
KFL1 131931Z 23006KT 12/M10 A3013 RMK A01 T01181098  RH  021%=      5-min Rain = 0
KFL1 131932Z 23007KT 12/M10 A3013 RMK A01 T01181097  RH  021%=      5-min Rain = 0
KFL1 131933Z 23012KT 12/M10 A3013 RMK A01 T01201096  RH  021%=      5-min Rain = 0
KFL1 131934Z 24010KT 12/M10 A3013 RMK A01 T01191098  RH  021%=      5-min Rain = 0
KFL1 131935Z 22009KT 12/M10 A3013 RMK A01 T01171099  RH  021%=      5-min Rain = 0
KFL1 131936Z 21009KT 12/M10 A3013 RMK A01 T01181098  RH  021%=      5-min Rain = 0
KFL1 131937Z 21009KT 12/M10 A3013 RMK A01 T01201096  RH  021%=      5-min Rain = 0
KFL1 131938Z 20010KT 12/M10 A3013 RMK A01 T01221095  RH  021%=      5-min Rain = 0
KFL1 131939Z 20009KT 12/M10 A3013 RMK A01 T01221097  RH  021%=      5-min Rain = 0
KFL1 131940Z 21011KT 12/M10 A3013 RMK A01 T01221098  RH  021%=      5-min Rain = 0
KFL1 131941Z 20009KT 12/M10 A3013 RMK A01 T01221098  RH  020%=      5-min Rain = 0
KFL1 131942Z 20009KT 12/M10 A3013 RMK A01 T01231097  RH  020%=      5-min Rain = 0
KFL1 131943Z 20008KT 13/M10 A3013 RMK A01 T01251098  RH  020%=      5-min Rain = 0
KFL1 131944Z 23008KT 13/M10 A3013 RMK A01 T01271096  RH  020%=      5-min Rain = 0
KFL1 131945Z 21009KT 13/M10 A3013 RMK A01 T01271096  RH  020%=      5-min Rain = 0
KFL1 131946Z 21007KT 13/M10 A3013 RMK A01 T01251101  RH  020%=      5-min Rain = 0
KFL1 131947Z 20008KT 13/M10 A3013 RMK A01 T01251098  RH  020%=      5-min Rain = 0
KFL1 131948Z 21008KT 13/M10 A3013 RMK A01 T01251098  RH  020%=      5-min Rain = 0
KFL1 131949Z 20008G13KT 13/M10 A3013 RMK A01 T01251097  RH  020%=      5-min Rain = 0
KFL1 131950Z 21009G15KT 13/M10 A3012 RMK A01 T01251097  RH  020%=      5-min Rain = 0
KFL1 131951Z 21012KT 13/M10 A3012 RMK A01 T01261096  RH  020%=      5-min Rain = 0
KFL1 131952Z 21011KT 12/M10 A3012 RMK A01 T01231100  RH  020%=      5-min Rain = 0
KFL1 131953Z 21011KT 12/M10 A3012 RMK A01 T01221099  RH  020%=      5-min Rain = 0
KFL1 131954Z 20008KT 12/M10 A3012 RMK A01 T01221099  RH  020%=      5-min Rain = 0
KFL1 131955Z 20012G18KT 12/M10 A3012 RMK A01 T01221098  RH  021%=      5-min Rain = 0
KFL1 131956Z 21010KT 12/M10 A3012 RMK A01 T01211099  RH  020%=      5-min Rain = 0
KFL1 131957Z 21013KT 12/M10 A3012 RMK A01 T01241097  RH  020%=      5-min Rain = 0
KFL1 131958Z 21013KT 12/M10 A3012 RMK A01 T01231101  RH  020%=      5-min Rain = 0
KFL1 131959Z 21014KT 12/M10 A3012 RMK A01 T01211102  RH  020%=      5-min Rain = 0
KFL1 132000Z 21012KT 12/M10 A3012 RMK A01 T01201101  RH  020%=      5-min Rain = 0
KFL1 132001Z 23012KT 12/M10 A3012 RMK A01 T01221098  RH  020%=      5-min Rain = 0
KFL1 132002Z 22012KT 12/M10 A3012 RMK A01 T01241097  RH  021%=      5-min Rain = 0
KFL1 132003Z 21011KT 12/M10 A3012 RMK A01 T01211098  RH  021%=      5-min Rain = 0
KFL1 132004Z 20012KT 12/M10 A3012 RMK A01 T01231097  RH  021%=      5-min Rain = 0
KFL1 132005Z 20008KT 12/M10 A3012 RMK A01 T01241098  RH  020%=      5-min Rain = 0
KFL1 132006Z 22011G16KT 13/M10 A3012 RMK A01 T01271097  RH  020%=      5-min Rain = 0
KFL1 132007Z 22011KT 13/M10 A3012 RMK A01 T01251100  RH  020%=      5-min Rain = 0
KFL1 132008Z 22008KT 12/M10 A3012 RMK A01 T01221101  RH  020%=      5-min Rain = 0
KFL1 132009Z 21012KT 12/M10 A3012 RMK A01 T01221099  RH  020%=      5-min Rain = 0
KFL1 132010Z 20011G16KT 12/M10 A3011 RMK A01 T01241097  RH  020%=      5-min Rain = 0
KFL1 132011Z 19010KT 12/M10 A3011 RMK A01 T01221100  RH  020%=      5-min Rain = 0
KFL1 132012Z 20011KT 12/M10 A3011 RMK A01 T01221100  RH  020%=      5-min Rain = 0
KFL1 132013Z 21011KT 12/M10 A3012 RMK A01 T01231099  RH  020%=      5-min Rain = 0
KFL1 132014Z 21013KT 12/M10 A3012 RMK A01 T01221100  RH  020%=      5-min Rain = 0
KFL1 132015Z 20010KT 12/M10 A3012 RMK A01 T01221101  RH  020%=      5-min Rain = 0
KFL1 132016Z 20010KT 12/M10 A3012 RMK A01 T01221101  RH  020%=      5-min Rain = 0
KFL1 132017Z 19010KT 12/M10 A3012 RMK A01 T01241100  RH  020%=      5-min Rain = 0
KFL1 132018Z 19010KT 13/M10 A3012 RMK A01 T01251100  RH  020%=      5-min Rain = 0
KFL1 132019Z 20008KT 12/M10 A3012 RMK A01 T01241100  RH  020%=      5-min Rain = 0
KFL1 132020Z 23011KT 12/M10 A3012 RMK A01 T01231101  RH  020%=      5-min Rain = 0
KFL1 132021Z 23008KT 12/M10 A3012 RMK A01 T01231101  RH  020%=      5-min Rain = 0
KFL1 132022Z 21008G13KT 12/M10 A3012 RMK A01 T01231101  RH  020%=      5-min Rain = 0
KFL1 132023Z 22011KT 13/M10 A3012 RMK A01 T01251100  RH  020%=      5-min Rain = 0
KFL1 132024Z 22009KT 12/M10 A3012 RMK A01 T01231103  RH  020%=      5-min Rain = 0
KFL1 132025Z 20009KT 12/M10 A3011 RMK A01 T01241100  RH  020%=      5-min Rain = 0
KFL1 132026Z 22010KT 13/M10 A3012 RMK A01 T01271099  RH  020%=      5-min Rain = 0
KFL1 132027Z 21007G12KT 13/M10 A3011 RMK A01 T01271100  RH  020%=      5-min Rain = 0
KFL1 132028Z 22009KT 13/M10 A3011 RMK A01 T01291098  RH  020%=      5-min Rain = 0
KFL1 132029Z 22007G12KT 13/M10 A3011 RMK A01 T01281099  RH  019%=      5-min Rain = 0
KFL1 132030Z 23011KT 13/M10 A3012 RMK A01 T01271100  RH  020%=      5-min Rain = 0
KFL1 132031Z 21009G15KT 13/M10 A3011 RMK A01 T01271100  RH  020%=      5-min Rain = 0
KFL1 132032Z 21009KT 13/M10 A3011 RMK A01 T01281101  RH  019%=      5-min Rain = 0
KFL1 132033Z 22011KT 13/M10 A3011 RMK A01 T01271102  RH  019%=      5-min Rain = 0
KFL1 132034Z 21011KT 13/M10 A3011 RMK A01 T01271102  RH  019%=      5-min Rain = 0
KFL1 132035Z 20009KT 13/M10 A3011 RMK A01 T01261102  RH  019%=      5-min Rain = 0
KFL1 132036Z 21012KT 13/M10 A3011 RMK A01 T01251103  RH  019%=      5-min Rain = 0
KFL1 132037Z 21013KT 13/M10 A3011 RMK A01 T01251103  RH  019%=      5-min Rain = 0
KFL1 132038Z 23009KT 12/M10 A3011 RMK A01 T01241103  RH  019%=      5-min Rain = 0
KFL1 132039Z 21010KT 13/M10 A3011 RMK A01 T01251101  RH  020%=      5-min Rain = 0
KFL1 132040Z 21011G16KT 13/M10 A3011 RMK A01 T01261100  RH  020%=      5-min Rain = 0
KFL1 132041Z 21010G15KT 13/M10 A3011 RMK A01 T01291099  RH  019%=      5-min Rain = 0
KFL1 132042Z 19009KT 13/M10 A3011 RMK A01 T01281101  RH  019%=      5-min Rain = 0
KFL1 132043Z 18008KT 13/M10 A3011 RMK A01 T01281102  RH  019%=      5-min Rain = 0
KFL1 132044Z 19009KT 13/M10 A3011 RMK A01 T01281102  RH  019%=      5-min Rain = 0
KFL1 132045Z 21011KT 13/M10 A3011 RMK A01 T01291101  RH  019%=      5-min Rain = 0
KFL1 132046Z 22010KT 13/M10 A3011 RMK A01 T01291100  RH  019%=      5-min Rain = 0
KFL1 132047Z 21009KT 13/M10 A3011 RMK A01 T01291099  RH  019%=      5-min Rain = 0
KFL1 132048Z 20011KT 13/M10 A3011 RMK A01 T01301101  RH  019%=      5-min Rain = 0
KFL1 132049Z 20008KT 13/M10 A3011 RMK A01 T01291103  RH  019%=      5-min Rain = 0
KFL1 132050Z 21012KT 13/M10 A3011 RMK A01 T01291103  RH  019%=      5-min Rain = 0
KFL1 132051Z 22010KT 13/M10 A3011 RMK A01 T01291101  RH  019%=      5-min Rain = 0
KFL1 132052Z 22010KT 13/M10 A3011 RMK A01 T01291102  RH  019%=      5-min Rain = 0
KFL1 132053Z 22012KT 13/M10 A3011 RMK A01 T01291101  RH  019%=      5-min Rain = 0
KFL1 132054Z 21008G13KT 13/M10 A3011 RMK A01 T01301097  RH  020%=      5-min Rain = 0
KFL1 132055Z 21011G16KT 13/M10 A3011 RMK A01 T01321096  RH  020%=      5-min Rain = 0
KFL1 132056Z 20010KT 13/M10 A3011 RMK A01 T01311100  RH  019%=      5-min Rain = 0
KFL1 132057Z 21012KT 13/M10 A3011 RMK A01 T01311100  RH  019%=      5-min Rain = 0
KFL1 132058Z 21013KT 13/M10 A3011 RMK A01 T01321100  RH  019%=      5-min Rain = 0
KFL1 132059Z 21010KT 13/M10 A3011 RMK A01 T01331100  RH  019%=      5-min Rain = 0
KFL1 132100Z 20009KT 13/M10 A3011 RMK A01 T01311101  RH  019%=      5-min Rain = 0
KFL1 132101Z 20009KT 13/M10 A3011 RMK A01 T01331097  RH  019%=      5-min Rain = 0
KFL1 132102Z 22009G14KT 13/M10 A3011 RMK A01 T01321099  RH  019%=      5-min Rain = 0
KFL1 132103Z 20011G16KT 13/M10 A3011 RMK A01 T01311103  RH  019%=      5-min Rain = 0
KFL1 132104Z 19010KT 13/M10 A3011 RMK A01 T01311103  RH  019%=      5-min Rain = 0
KFL1 132105Z 20007KT 13/M10 A3011 RMK A01 T01311101  RH  019%=      5-min Rain = 0
KFL1 132106Z 17007KT 13/M10 A3011 RMK A01 T01331099  RH  019%=      5-min Rain = 0
KFL1 132107Z 18007G12KT 13/M10 A3011 RMK A01 T01331100  RH  019%=      5-min Rain = 0
KFL1 132108Z 18006KT 13/M10 A3011 RMK A01 T01331099  RH  019%=      5-min Rain = 0
KFL1 132109Z 21008KT 13/M10 A3011 RMK A01 T01341098  RH  019%=      5-min Rain = 0
KFL1 132110Z 21005KT 14/M10 A3011 RMK A01 T01381096  RH  019%=      5-min Rain = 0
KFL1 132111Z 20008G13KT 14/M10 A3011 RMK A01 T01421097  RH  018%=      5-min Rain = 0
KFL1 132112Z 20009KT 14/M10 A3011 RMK A01 T01411100  RH  018%=      5-min Rain = 0
KFL1 132113Z 18011KT 14/M10 A3011 RMK A01 T01421101  RH  018%=      5-min Rain = 0
KFL1 132114Z 19009KT 14/M10 A3011 RMK A01 T01401103  RH  017%=      5-min Rain = 0
KFL1 132115Z 23009KT 14/M10 A3011 RMK A01 T01411101  RH  018%=      5-min Rain = 0
KFL1 132116Z 23007KT 14/M10 A3011 RMK A01 T01421100  RH  018%=      5-min Rain = 0
KFL1 132117Z 22010KT 14/M10 A3011 RMK A01 T01411099  RH  018%=      5-min Rain = 0
KFL1 132118Z 20006KT 14/M10 A301 RMK A01 T01411097  RH  018%=      5-min Rain = 0
KFL1 132119Z 18011KT 14/M10 A3011 RMK A01 T01411098  RH  018%=      5-min Rain = 0
KFL1 132120Z 19008G15KT 14/M10 A3011 RMK A01 T01401101  RH  018%=      5-min Rain = 0
KFL1 132121Z 19008KT 14/M10 A301 RMK A01 T01401099  RH  018%=      5-min Rain = 0
KFL1 132122Z 21009KT 14/M10 A301 RMK A01 T01421096  RH  018%=      5-min Rain = 0
KFL1 132123Z 22007G12KT 15/M10 A301 RMK A01 T01451095  RH  018%=      5-min Rain = 0
KFL1 132124Z 23011KT 15/M10 A301 RMK A01 T01451097  RH  018%=      5-min Rain = 0
KFL1 132125Z 25011G16KT 15/M10 A301 RMK A01 T01451099  RH  018%=      5-min Rain = 0
KFL1 132126Z 26011KT 14/M10 A301 RMK A01 T01421103  RH  017%=      5-min Rain = 0
KFL1 132127Z 24010KT 14/M10 A301 RMK A01 T01421101  RH  018%=      5-min Rain = 0
KFL1 132128Z 23012KT 14/M10 A301 RMK A01 T01421098  RH  018%=      5-min Rain = 0
KFL1 132129Z 24012KT 14/M10 A301 RMK A01 T01411100  RH  018%=      5-min Rain = 0
KFL1 132130Z 23011KT 14/M10 A301 RMK A01 T01391102  RH  018%=      5-min Rain = 0
KFL1 132131Z 24011KT 14/M10 A301 RMK A01 T01391100  RH  018%=      5-min Rain = 0
KFL1 132132Z 23009G15KT 14/M10 A301 RMK A01 T01411098  RH  018%=      5-min Rain = 0
KFL1 132133Z 26011KT 14/M10 A301 RMK A01 T01441095  RH  018%=      5-min Rain = 0
KFL1 132134Z 26009KT 15/M10 A301 RMK A01 T01461096  RH  018%=      5-min Rain = 0
KFL1 132135Z 25009KT 14/M10 A301 RMK A01 T01421099  RH  018%=      5-min Rain = 0
KFL1 132136Z 24007KT 14/M10 A301 RMK A01 T01421100  RH  018%=      5-min Rain = 0
KFL1 132137Z 26010KT 14/M10 A301 RMK A01 T01421099  RH  018%=      5-min Rain = 0
KFL1 132138Z 26011KT 14/M10 A301 RMK A01 T01411102  RH  018%=      5-min Rain = 0
KFL1 132139Z 27011KT 14/M10 A301 RMK A01 T01401102  RH  018%=      5-min Rain = 0
KFL1 132140Z 26011G16KT 14/M10 A301 RMK A01 T01401098  RH  018%=      5-min Rain = 0
KFL1 132141Z 27010KT 14/M10 A301 RMK A01 T01421100  RH  018%=      5-min Rain = 0
KFL1 132142Z 27011KT 14/M10 A301 RMK A01 T01401101  RH  018%=      5-min Rain = 0
KFL1 132143Z 27012KT 14/M10 A301 RMK A01 T01401101  RH  018%=      5-min Rain = 0
KFL1 132144Z 25014KT 14/M10 A301 RMK A01 T01391101  RH  018%=      5-min Rain = 0
KFL1 132145Z 26015KT 14/M10 A301 RMK A01 T01391101  RH  018%=      5-min Rain = 0
KFL1 132146Z 28011KT 14/M10 A301 RMK A01 T01401099  RH  018%=      5-min Rain = 0
KFL1 132147Z 28014KT 14/M10 A301 RMK A01 T01401100  RH  018%=      5-min Rain = 0
KFL1 132148Z 27012G18KT 14/M10 A3011 RMK A01 T01371101  RH  018%=      5-min Rain = 0
KFL1 132149Z 30012KT 14/M10 A301 RMK A01 T01371101  RH  018%=      5-min Rain = 0
KFL1 132150Z 28012KT 14/M10 A3011 RMK A01 T01381100  RH  018%=      5-min Rain = 0
KFL1 132151Z 29013KT 14/M10 A3011 RMK A01 T01401099  RH  018%=      5-min Rain = 0
KFL1 132152Z 29012KT 14/M10 A3011 RMK A01 T01401098  RH  018%=      5-min Rain = 0
KFL1 132153Z 29015KT 14/M10 A3011 RMK A01 T01391099  RH  018%=      5-min Rain = 0
KFL1 132154Z 28013KT 14/M10 A3011 RMK A01 T01371099  RH  018%=      5-min Rain = 0
KFL1 132155Z 28010KT 14/M10 A3011 RMK A01 T01371097  RH  019%=      5-min Rain = 0
KFL1 132156Z 28012KT 14/M10 A3011 RMK A01 T01371096  RH  019%=      5-min Rain = 0
KFL1 132157Z 29010KT 14/M10 A3011 RMK A01 T01361097  RH  019%=      5-min Rain = 0
KFL1 132158Z 28011KT 14/M10 A3011 RMK A01 T01351096  RH  019%=      5-min Rain = 0
KFL1 132159Z 25009KT 14/M10 A3011 RMK A01 T01351098  RH  019%=      5-min Rain = 0
KFL1 132200Z 25008KT 14/M10 A3011 RMK A01 T01361099  RH  019%=      5-min Rain = 0
KFL1 132201Z 28006KT 14/M10 A3011 RMK A01 T01371097  RH  019%=      5-min Rain = 0
KFL1 132202Z 26005KT 14/M10 A3011 RMK A01 T01371097  RH  019%=      5-min Rain = 0
KFL1 132203Z 27004KT 14/M10 A3011 RMK A01 T01361101  RH  018%=      5-min Rain = 0
KFL1 132204Z 29008KT 14/M10 A3011 RMK A01 T01371099  RH  019%=      5-min Rain = 0
KFL1 132205Z 27010G15KT 14/M10 A3011 RMK A01 T01361098  RH  019%=      5-min Rain = 0
KFL1 132206Z 29009KT 14/M10 A3011 RMK A01 T01381095  RH  019%=      5-min Rain = 0
KFL1 132207Z 28007KT 14/M10 A3011 RMK A01 T01371095  RH  019%=      5-min Rain = 0
KFL1 132208Z 30007KT 14/M10 A3011 RMK A01 T01371099  RH  018%=      5-min Rain = 0
KFL1 132209Z 29009KT 14/M10 A3011 RMK A01 T01371099  RH  019%=      5-min Rain = 0
KFL1 132210Z 30008KT 14/M10 A3011 RMK A01 T01391096  RH  019%=      5-min Rain = 0
KFL1 132211Z 28006KT 14/M10 A3011 RMK A01 T01391096  RH  019%=      5-min Rain = 0
KFL1 132212Z 26009KT 14/M10 A3011 RMK A01 T01371100  RH  018%=      5-min Rain = 0
KFL1 132213Z 26009KT 13/M10 A3012 RMK A01 T01341100  RH  019%=      5-min Rain = 0
KFL1 132214Z 27009KT 13/M10 A3012 RMK A01 T01331100  RH  019%=      5-min Rain = 0
KFL1 132215Z 29009KT 13/M10 A3012 RMK A01 T01321100  RH  019%=      5-min Rain = 0
KFL1 132216Z 27006KT 13/M10 A3012 RMK A01 T01331098  RH  019%=      5-min Rain = 0
KFL1 132217Z 26011KT 13/M10 A3012 RMK A01 T01341095  RH  019%=      5-min Rain = 0
KFL1 132218Z 27011KT 13/M10 A3012 RMK A01 T01331097  RH  019%=      5-min Rain = 0
KFL1 132219Z 26008KT 13/M10 A3012 RMK A01 T01291101  RH  019%=      5-min Rain = 0
KFL1 132220Z 27009KT 13/M10 A3012 RMK A01 T01301099  RH  019%=      5-min Rain = 0
KFL1 132221Z 27009KT 13/M10 A3012 RMK A01 T01291100  RH  019%=      5-min Rain = 0
KFL1 132222Z 26009KT 13/M10 A3012 RMK A01 T01291100  RH  019%=      5-min Rain = 0
KFL1 132223Z 33007KT 13/M10 A3012 RMK A01 T01311097  RH  020%=      5-min Rain = 0
KFL1 132224Z 32009KT 13/M10 A3012 RMK A01 T01281099  RH  019%=      5-min Rain = 0
KFL1 132225Z 31010KT 13/M10 A3012 RMK A01 T01291098  RH  020%=      5-min Rain = 0
KFL1 132226Z 31007KT 13/M10 A3012 RMK A01 T01291099  RH  019%=      5-min Rain = 0
KFL1 132227Z 32007KT 13/M10 A3012 RMK A01 T01281098  RH  020%=      5-min Rain = 0
KFL1 132228Z 33006KT 13/M10 A3012 RMK A01 T01281099  RH  020%=      5-min Rain = 0
KFL1 132229Z 30007KT 13/M10 A3012 RMK A01 T01301097  RH  020%=      5-min Rain = 0
KFL1 132230Z 30008KT 13/M10 A3012 RMK A01 T01291099  RH  019%=      5-min Rain = 0
KFL1 132231Z 28006KT 13/M10 A3012 RMK A01 T01281099  RH  020%=      5-min Rain = 0
KFL1 132232Z 28008KT 13/M10 A3012 RMK A01 T01251101  RH  020%=      5-min Rain = 0
KFL1 132233Z 29010KT 13/M10 A3012 RMK A01 T01251101  RH  020%=      5-min Rain = 0
KFL1 132234Z 29008KT 13/M10 A3012 RMK A01 T01281096  RH  020%=      5-min Rain = 0
KFL1 132235Z 28007KT 13/M10 A3012 RMK A01 T01291095  RH  020%=      5-min Rain = 0
KFL1 132236Z 27007KT 13/M10 A3012 RMK A01 T01271099  RH  020%=      5-min Rain = 0
KFL1 132237Z 27009KT 13/M10 A3012 RMK A01 T01261100  RH  020%=      5-min Rain = 0
KFL1 132238Z 26010KT 13/M10 A3012 RMK A01 T01251100  RH  020%=      5-min Rain = 0
KFL1 132239Z 27009KT 13/M10 A3012 RMK A01 T01251100  RH  020%=      5-min Rain = 0
KFL1 132240Z 26010KT 12/M10 A3012 RMK A01 T01241101  RH  020%=      5-min Rain = 0
KFL1 132241Z 28011KT 13/M10 A3011 RMK A01 T01261099  RH  020%=      5-min Rain = 0
KFL1 132242Z 29010KT 13/M10 A3012 RMK A01 T01251097  RH  020%=      5-min Rain = 0
KFL1 132243Z 28009KT 12/M10 A3012 RMK A01 T01241098  RH  020%=      5-min Rain = 0
KFL1 132244Z 28009KT 12/M10 A3012 RMK A01 T01231100  RH  020%=      5-min Rain = 0
KFL1 132245Z 27011KT 12/M10 A3012 RMK A01 T01231099  RH  020%=      5-min Rain = 0
KFL1 132246Z 27010KT 12/M10 A3012 RMK A01 T01211103  RH  020%=      5-min Rain = 0
KFL1 132247Z 28008KT 12/M10 A3012 RMK A01 T01191103  RH  020%=      5-min Rain = 0
KFL1 132248Z 27009KT 12/M10 A3012 RMK A01 T01181103  RH  020%=      5-min Rain = 0
KFL1 132249Z 28011KT 12/M10 A3011 RMK A01 T01181103  RH  020%=      5-min Rain = 0
KFL1 132250Z 29012KT 12/M10 A3011 RMK A01 T01191101  RH  020%=      5-min Rain = 0
KFL1 132251Z 30010KT 12/M10 A3011 RMK A01 T01191101  RH  021%=      5-min Rain = 0
KFL1 132252Z 29012KT 12/M10 A3011 RMK A01 T01191099  RH  021%=      5-min Rain = 0
KFL1 132253Z 29010KT 12/M10 A3011 RMK A01 T01191099  RH  021%=      5-min Rain = 0
KFL1 132254Z 30011KT 12/M10 A3011 RMK A01 T01191099  RH  021%=      5-min Rain = 0
KFL1 132255Z 29012KT 12/M10 A3011 RMK A01 T01191099  RH  021%=      5-min Rain = 0
KFL1 132256Z 28011KT 12/M10 A3011 RMK A01 T01181101  RH  021%=      5-min Rain = 0
KFL1 132257Z 30013KT 12/M10 A3011 RMK A01 T01191099  RH  021%=      5-min Rain = 0
KFL1 132258Z 33011KT 12/M10 A3011 RMK A01 T01161101  RH  021%=      5-min Rain = 0
KFL1 132259Z 32011KT 11/M10 A3011 RMK A01 T01141103  RH  021%=      5-min Rain = 0
KFL1 132300Z 32009KT 11/M10 A3011 RMK A01 T01141102  RH  021%=      5-min Rain = 0
KFL1 132301Z 31009KT 11/M10 A3011 RMK A01 T01131103  RH  021%=      5-min Rain = 0
KFL1 132302Z 30010KT 11/M10 A3011 RMK A01 T01141101  RH  021%=      5-min Rain = 0
KFL1 132303Z 29011KT 12/M10 A3011 RMK A01 T01151101  RH  021%=      5-min Rain = 0
KFL1 132304Z 29011KT 12/M10 A3011 RMK A01 T01151100  RH  021%=      5-min Rain = 0
KFL1 132305Z 30013KT 11/M10 A3011 RMK A01 T01131102  RH  021%=      5-min Rain = 0
KFL1 132306Z 30011KT 11/M10 A3011 RMK A01 T01121102  RH  021%=      5-min Rain = 0
KFL1 132307Z 29010KT 11/M10 A3011 RMK A01 T01121101  RH  021%=      5-min Rain = 0
KFL1 132308Z 29012KT 11/M10 A3011 RMK A01 T01121100  RH  022%=      5-min Rain = 0
KFL1 132309Z 30009KT 11/M10 A3011 RMK A01 T01111101  RH  022%=      5-min Rain = 0
KFL1 132310Z 30011KT 11/M10 A3011 RMK A01 T01111100  RH  022%=      5-min Rain = 0
KFL1 132311Z 30011KT 11/M10 A3011 RMK A01 T01091101  RH  022%=      5-min Rain = 0
KFL1 132312Z 31009KT 11/M10 A3011 RMK A01 T01091102  RH  022%=      5-min Rain = 0
KFL1 132313Z 31007KT 11/M10 A3011 RMK A01 T01091101  RH  022%=      5-min Rain = 0
KFL1 132314Z 32005KT 11/M10 A3011 RMK A01 T01091100  RH  022%=      5-min Rain = 0
KFL1 132315Z 30005KT 11/M10 A3011 RMK A01 T01101097  RH  022%=      5-min Rain = 0
KFL1 132316Z 29007KT 11/M10 A3011 RMK A01 T01091098  RH  022%=      5-min Rain = 0
KFL1 132317Z 29007KT 11/M10 A3011 RMK A01 T01091100  RH  022%=      5-min Rain = 0
KFL1 132318Z 30005KT 11/M10 A3011 RMK A01 T01091100  RH  022%=      5-min Rain = 0
KFL1 132319Z 29006KT 11/M10 A3011 RMK A01 T01081100  RH  022%=      5-min Rain = 0
KFL1 132320Z 28009KT 11/M10 A3011 RMK A01 T01081100  RH  022%=      5-min Rain = 0
KFL1 132321Z 29007KT 11/M10 A3011 RMK A01 T01071101  RH  022%=      5-min Rain = 0
KFL1 132322Z 29007KT 11/M10 A3011 RMK A01 T01071100  RH  022%=      5-min Rain = 0
KFL1 132323Z 29005KT 11/M10 A3011 RMK A01 T01061100  RH  022%=      5-min Rain = 0
KFL1 132324Z 29007KT 11/M10 A3012 RMK A01 T01061099  RH  023%=      5-min Rain = 0
KFL1 132325Z 31008KT 11/M10 A3011 RMK A01 T01061098  RH  023%=      5-min Rain = 0
KFL1 132326Z 30006KT 11/M10 A3012 RMK A01 T01051098  RH  023%=      5-min Rain = 0
KFL1 132327Z 29005KT 10/M10 A3012 RMK A01 T01041100  RH  023%=      5-min Rain = 0
KFL1 132328Z 30004KT 10/M10 A3012 RMK A01 T01041099  RH  023%=      5-min Rain = 0
KFL1 132329Z 28002KT 10/M10 A3012 RMK A01 T01041099  RH  023%=      5-min Rain = 0
KFL1 132330Z 26002KT 10/M10 A3012 RMK A01 T01041101  RH  023%=      5-min Rain = 0
KFL1 132331Z 31004KT 11/M10 A3012 RMK A01 T01051099  RH  023%=      5-min Rain = 0
KFL1 132332Z 31005KT 10/M10 A3012 RMK A01 T01031102  RH  023%=      5-min Rain = 0
KFL1 132333Z 27005KT 10/M10 A3012 RMK A01 T01021101  RH  023%=      5-min Rain = 0
KFL1 132334Z 27006KT 10/M10 A3012 RMK A01 T01021101  RH  023%=      5-min Rain = 0
KFL1 132335Z 29006KT 10/M10 A3012 RMK A01 T01021100  RH  023%=      5-min Rain = 0
KFL1 132336Z 29005KT 10/M10 A3012 RMK A01 T01011101  RH  023%=      5-min Rain = 0
KFL1 132337Z 30004KT 10/M10 A3012 RMK A01 T01011099  RH  023%=      5-min Rain = 0
KFL1 132338Z 31007KT 10/M10 A3012 RMK A01 T00991100  RH  024%=      5-min Rain = 0
KFL1 132339Z 30010KT 10/M10 A3012 RMK A01 T00971101  RH  024%=      5-min Rain = 0
KFL1 132340Z 31009KT 10/M10 A3012 RMK A01 T00961101  RH  024%=      5-min Rain = 0
KFL1 132341Z 29007KT 10/M10 A3012 RMK A01 T00951100  RH  024%=      5-min Rain = 0
KFL1 132342Z 30009KT 10/M10 A3012 RMK A01 T00951101  RH  024%=      5-min Rain = 0
KFL1 132343Z 30009KT 10/M10 A3012 RMK A01 T00961098  RH  024%=      5-min Rain = 0
KFL1 132344Z 30010KT 09/M10 A3012 RMK A01 T00931099  RH  025%=      5-min Rain = 0
KFL1 132345Z 30008KT 09/M10 A3012 RMK A01 T00911100  RH  025%=      5-min Rain = 0
KFL1 132346Z 30007KT 09/M10 A3012 RMK A01 T00911100  RH  025%=      5-min Rain = 0
KFL1 132347Z 28006KT 09/M10 A3012 RMK A01 T00931097  RH  025%=      5-min Rain = 0
KFL1 132348Z 30009KT 09/M10 A3012 RMK A01 T00931097  RH  025%=      5-min Rain = 0
KFL1 132349Z 30009KT 09/M10 A3012 RMK A01 T00901099  RH  025%=      5-min Rain = 0
KFL1 132350Z 29006KT 09/M10 A3012 RMK A01 T00901099  RH  025%=      5-min Rain = 0
KFL1 132351Z 30010KT 09/M10 A3012 RMK A01 T00891100  RH  025%=      5-min Rain = 0
KFL1 132352Z 30011KT 09/M10 A3012 RMK A01 T00871100  RH  025%=      5-min Rain = 0
KFL1 132353Z 31009KT 09/M10 A3012 RMK A01 T00881098  RH  026%=      5-min Rain = 0
KFL1 132354Z 30008KT 09/M10 A3012 RMK A01 T00871098  RH  026%=      5-min Rain = 0
KFL1 132355Z 30008KT 08/M10 A3012 RMK A01 T00841099  RH  026%=      5-min Rain = 0
KFL1 132356Z 30011KT 08/M10 A3012 RMK A01 T00841099  RH  026%=      5-min Rain = 0
KFL1 132357Z 31012KT 08/M10 A3012 RMK A01 T00841098  RH  026%=      5-min Rain = 0
KFL1 132358Z 31010KT 09/M10 A3012 RMK A01 T00851098  RH  026%=      5-min Rain = 0
KFL1 132359Z 30009KT 09/M10 A3012 RMK A01 T00861098  RH  026%=      5-min Rain = 0
KFL1 140000Z 30008KT 09/M10 A3012 RMK A01 T00881096  RH  026%=      5-min Rain = 0
KFL1 140001Z 30008KT 09/M10 A3012 RMK A01 T00871097  RH  026%=      5-min Rain = 0
KFL1 140002Z 31007KT 09/M10 A3012 RMK A01 T00861098  RH  026%=      5-min Rain = 0
KFL1 140003Z 33007KT 09/M10 A3012 RMK A01 T00851098  RH  026%=      5-min Rain = 0
KFL1 140004Z 32006KT 08/M10 A3013 RMK A01 T00841097  RH  027%=      5-min Rain = 0
KFL1 140005Z 33006KT 08/M10 A3013 RMK A01 T00811099  RH  027%=      5-min Rain = 0
KFL1 140006Z 34005KT 08/M10 A3013 RMK A01 T00811099  RH  027%=      5-min Rain = 0
KFL1 140007Z 34003KT 08/M10 A3013 RMK A01 T00801098  RH  027%=      5-min Rain = 0
KFL1 140008Z 01003KT 08/M10 A3013 RMK A01 T00811097  RH  027%=      5-min Rain = 0
KFL1 140009Z 36004KT 08/M10 A3013 RMK A01 T00801098  RH  027%=      5-min Rain = 0
KFL1 140010Z 05001KT 08/M10 A3013 RMK A01 T00791097  RH  027%=      5-min Rain = 0
KFL1 140011Z 06003KT 08/M10 A3013 RMK A01 T00801098  RH  027%=      5-min Rain = 0
KFL1 140012Z 08002KT 08/M10 A3013 RMK A01 T00811099  RH  027%=      5-min Rain = 0
KFL1 140013Z 04001KT 08/M10 A3013 RMK A01 T00811099  RH  027%=      5-min Rain = 0
KFL1 140014Z 09001KT 08/M10 A3013 RMK A01 T00821098  RH  027%=      5-min Rain = 0
KFL1 140015Z 16001KT 08/M10 A3013 RMK A01 T00811099  RH  027%=      5-min Rain = 0
KFL1 140016Z 15002KT 08/M10 A3013 RMK A01 T00821098  RH  027%=      5-min Rain = 0
KFL1 140017Z 14001KT 08/M10 A3013 RMK A01 T00791100  RH  027%=      5-min Rain = 0
KFL1 140018Z 15000KT 08/M10 A3013 RMK A01 T00781100  RH  027%=      5-min Rain = 0
KFL1 140019Z 22000KT 08/M10 A3013 RMK A01 T00761101  RH  027%=      5-min Rain = 0
KFL1 140020Z 21000KT 08/M10 A3013 RMK A01 T00771099  RH  027%=      5-min Rain = 0
KFL1 140021Z 01002KT 08/M10 A3013 RMK A01 T00761098  RH  028%=      5-min Rain = 0
KFL1 140022Z 01004KT 07/M10 A3013 RMK A01 T00731100  RH  028%=      5-min Rain = 0
KFL1 140023Z 03003KT 08/M10 A3013 RMK A01 T00751099  RH  028%=      5-min Rain = 0
KFL1 140024Z 05001KT 08/M10 A3013 RMK A01 T00771096  RH  028%=      5-min Rain = 0
KFL1 140025Z 08002KT 08/M10 A3013 RMK A01 T00761097  RH  028%=      5-min Rain = 0
KFL1 140026Z 09002KT 08/M10 A3013 RMK A01 T00761099  RH  028%=      5-min Rain = 0
KFL1 140027Z 05001KT 08/M10 A3013 RMK A01 T00761099  RH  028%=      5-min Rain = 0
KFL1 140028Z 03000KT 08/M10 A3013 RMK A01 T00751100  RH  028%=      5-min Rain = 0
KFL1 140029Z 01002KT 07/M10 A3013 RMK A01 T00731101  RH  028%=      5-min Rain = 0
KFL1 140030Z 00002KT 07/M10 A3013 RMK A01 T00721099  RH  028%=      5-min Rain = 0
KFL1 140031Z 03002KT 07/M10 A3013 RMK A01 T00661100  RH  029%=      5-min Rain = 0
KFL1 140032Z 02002KT 06/M10 A3013 RMK A01 T00621099  RH  030%=      5-min Rain = 0
KFL1 140033Z 02003KT 06/M10 A3013 RMK A01 T00611100  RH  031%=      5-min Rain = 0
KFL1 140034Z 03005KT 06/M10 A3013 RMK A01 T00621100  RH  030%=      5-min Rain = 0
KFL1 140035Z 01005KT 06/M10 A3013 RMK A01 T00641100  RH  030%=      5-min Rain = 0
KFL1 140036Z 35006KT 06/M10 A3013 RMK A01 T00641100  RH  030%=      5-min Rain = 0
KFL1 140037Z 00006KT 06/M10 A3013 RMK A01 T00591100  RH  031%=      5-min Rain = 0
KFL1 140038Z 01005KT 05/M10 A3013 RMK A01 T00531101  RH  032%=      5-min Rain = 0
KFL1 140039Z 00004KT 06/M10 A3013 RMK A01 T00561098  RH  032%=      5-min Rain = 0
KFL1 140040Z 01005KT 06/M10 A3013 RMK A01 T00601099  RH  031%=      5-min Rain = 0
KFL1 140041Z 35006KT 06/M10 A3013 RMK A01 T00611100  RH  031%=      5-min Rain = 0
KFL1 140042Z 35006KT 06/M10 A3013 RMK A01 T00611099  RH  031%=      5-min Rain = 0
KFL1 140043Z 01007KT 06/M10 A3013 RMK A01 T00561100  RH  032%=      5-min Rain = 0
KFL1 140044Z 36005KT 06/M10 A3013 RMK A01 T00551099  RH  032%=      5-min Rain = 0
KFL1 140045Z 35005KT 06/M10 A3013 RMK A01 T00571099  RH  032%=      5-min Rain = 0
KFL1 140046Z 02004KT 06/M10 A3013 RMK A01 T00601097  RH  031%=      5-min Rain = 0
KFL1 140047Z 01004KT 06/M10 A3013 RMK A01 T00581099  RH  031%=      5-min Rain = 0
KFL1 140048Z 02004KT 05/M10 A3014 RMK A01 T00541101  RH  032%=      5-min Rain = 0
KFL1 140049Z 01005KT 05/M10 A3014 RMK A01 T00511101  RH  032%=      5-min Rain = 0
KFL1 140050Z 01005KT 05/M10 A3014 RMK A01 T00481102  RH  033%=      5-min Rain = 0
KFL1 140051Z 03005KT 05/M10 A3014 RMK A01 T00471102  RH  033%=      5-min Rain = 0
KFL1 140052Z 04003KT 04/M10 A3014 RMK A01 T00441102  RH  034%=      5-min Rain = 0
KFL1 140053Z 35004KT 04/M10 A3014 RMK A01 T00431101  RH  034%=      5-min Rain = 0
KFL1 140054Z 01004KT 04/M10 A3014 RMK A01 T00421102  RH  034%=      5-min Rain = 0
KFL1 140055Z 35003KT 04/M10 A3014 RMK A01 T00411100  RH  035%=      5-min Rain = 0
KFL1 140056Z 36004KT 04/M10 A3014 RMK A01 T00371102  RH  036%=      5-min Rain = 0
KFL1 140057Z 35006KT 04/M10 A3014 RMK A01 T00361101  RH  036%=      5-min Rain = 0
KFL1 140058Z 35006KT 04/M10 A3014 RMK A01 T00371100  RH  036%=      5-min Rain = 0
KFL1 140059Z 34004KT 04/M10 A3014 RMK A01 T00371101  RH  036%=      5-min Rain = 0
KFL1 140100Z 33003KT 04/M10 A3014 RMK A01 T00371100  RH  036%=      5-min Rain = 0
KFL1 140101Z 33004KT 04/M10 A3014 RMK A01 T00391098  RH  036%=      5-min Rain = 0
KFL1 140102Z 34003KT 04/M10 A3014 RMK A01 T00391099  RH  036%=      5-min Rain = 0
KFL1 140103Z 35003KT 04/M10 A3014 RMK A01 T00401099  RH  036%=      5-min Rain = 0
KFL1 140104Z 33002KT 04/M10 A3014 RMK A01 T00421099  RH  035%=      5-min Rain = 0
KFL1 140105Z 32002KT 05/M10 A3014 RMK A01 T00471098  RH  034%=      5-min Rain = 0
KFL1 140106Z 34004KT 05/M10 A3014 RMK A01 T00501098  RH  033%=      5-min Rain = 0
KFL1 140107Z 35004KT 06/M10 A3014 RMK A01 T00551097  RH  032%=      5-min Rain = 0
KFL1 140108Z 35003KT 06/M10 A3014 RMK A01 T00581098  RH  032%=      5-min Rain = 0
KFL1 140109Z 34004KT 06/M10 A3014 RMK A01 T00601099  RH  031%=      5-min Rain = 0
KFL1 140110Z 33005KT 06/M10 A3014 RMK A01 T00591100  RH  031%=      5-min Rain = 0
KFL1 140111Z 35005KT 05/M10 A3014 RMK A01 T00501104  RH  032%=      5-min Rain = 0
KFL1 140112Z 35004KT 04/M10 A3014 RMK A01 T00441104  RH  033%=      5-min Rain = 0
KFL1 140113Z 00004KT 04/M10 A3014 RMK A01 T00391104  RH  034%=      5-min Rain = 0
KFL1 140114Z 35005KT 03/M11 A3014 RMK A01 T00331105  RH  036%=      5-min Rain = 0
KFL1 140115Z 36004KT 03/M10 A3014 RMK A01 T00281104  RH  037%=      5-min Rain = 0
KFL1 140116Z 36004KT 03/M10 A3014 RMK A01 T00261103  RH  038%=      5-min Rain = 0
KFL1 140117Z 35004KT 02/M10 A3014 RMK A01 T00241101  RH  039%=      5-min Rain = 0
KFL1 140118Z 35006KT 02/M10 A3014 RMK A01 T00231102  RH  039%=      5-min Rain = 0
KFL1 140119Z 36006KT 03/M10 A3014 RMK A01 T00271099  RH  039%=      5-min Rain = 0
KFL1 140120Z 01005KT 03/M10 A3014 RMK A01 T00251101  RH  039%=      5-min Rain = 0
KFL1 140121Z 00005KT 02/M10 A3014 RMK A01 T00211102  RH  040%=      5-min Rain = 0
KFL1 140122Z 01004KT 02/M10 A3014 RMK A01 T00241100  RH  040%=      5-min Rain = 0
KFL1 140123Z 01004KT 03/M10 A3014 RMK A01 T00251100  RH  039%=      5-min Rain = 0
KFL1 140124Z 02004KT 02/M10 A3014 RMK A01 T00221102  RH  039%=      5-min Rain = 0
KFL1 140125Z 01005KT 02/M10 A3014 RMK A01 T00201102  RH  040%=      5-min Rain = 0
KFL1 140126Z 35005KT 01/M11 A3014 RMK A01 T00121105  RH  042%=      5-min Rain = 0
KFL1 140127Z 03003KT 01/M11 A3014 RMK A01 T00061105  RH  043%=      5-min Rain = 0
KFL1 140128Z 03003KT 02/M10 A3014 RMK A01 T00161097  RH  043%=      5-min Rain = 0
KFL1 140129Z 02004KT 02/M10 A3015 RMK A01 T00221098  RH  041%=      5-min Rain = 0
KFL1 140130Z 02004KT 02/M10 A3015 RMK A01 T00191101  RH  040%=      5-min Rain = 0
KFL1 140131Z 01004KT 01/M11 A3015 RMK A01 T00111105  RH  041%=      5-min Rain = 0
KFL1 140132Z 01004KT 01/M10 A3015 RMK A01 T00101104  RH  042%=      5-min Rain = 0
KFL1 140133Z 00005KT 01/M10 A3015 RMK A01 T00111102  RH  043%=      5-min Rain = 0
KFL1 140134Z 35005KT 01/M10 A3015 RMK A01 T00131102  RH  042%=      5-min Rain = 0
KFL1 140135Z 35004KT 02/M10 A3015 RMK A01 T00161102  RH  041%=      5-min Rain = 0
KFL1 140136Z 02005KT 02/M10 A3015 RMK A01 T00181103  RH  040%=      5-min Rain = 0
KFL1 140137Z 01004KT 02/M10 A3015 RMK A01 T00181104  RH  040%=      5-min Rain = 0
KFL1 140138Z 03004KT 02/M10 A3015 RMK A01 T00181102  RH  040%=      5-min Rain = 0
KFL1 140139Z 05001KT 02/M10 A3015 RMK A01 T00191102  RH  040%=      5-min Rain = 0
KFL1 140140Z 36004KT 02/M10 A3015 RMK A01 T00171103  RH  041%=      5-min Rain = 0
KFL1 140141Z 35004KT 02/M10 A3015 RMK A01 T00201102  RH  040%=      5-min Rain = 0
KFL1 140142Z 01005KT 03/M10 A3015 RMK A01 T00251101  RH  039%=      5-min Rain = 0
KFL1 140143Z 03005KT 03/M10 A3015 RMK A01 T00261102  RH  038%=      5-min Rain = 0
KFL1 140144Z 03005KT 02/M10 A3015 RMK A01 T00241103  RH  038%=      5-min Rain = 0
KFL1 140145Z 02006KT 02/M10 A3015 RMK A01 T00211102  RH  040%=      5-min Rain = 0
KFL1 140146Z 02005KT 02/M10 A3015 RMK A01 T00231100  RH  040%=      5-min Rain = 0
KFL1 140147Z 01006KT 03/M10 A3015 RMK A01 T00281098  RH  039%=      5-min Rain = 0
KFL1 140148Z 02006KT 03/M10 A3015 RMK A01 T00291099  RH  038%=      5-min Rain = 0
KFL1 140149Z 02004KT 03/M10 A3015 RMK A01 T00291099  RH  038%=      5-min Rain = 0
KFL1 140150Z 02004KT 03/M10 A3016 RMK A01 T00281098  RH  039%=      5-min Rain = 0
KFL1 140151Z 03004KT 03/M10 A3016 RMK A01 T00291099  RH  039%=      5-min Rain = 0
KFL1 140152Z 05004KT 03/M10 A3016 RMK A01 T00311100  RH  038%=      5-min Rain = 0
KFL1 140153Z 03003KT 03/M10 A3016 RMK A01 T00321101  RH  037%=      5-min Rain = 0
KFL1 140154Z 02004KT 03/M10 A3016 RMK A01 T00291102  RH  038%=      5-min Rain = 0
KFL1 140155Z 01005KT 02/M10 A3016 RMK A01 T00241104  RH  038%=      5-min Rain = 0
KFL1 140156Z 02006KT 02/M10 A3016 RMK A01 T00231103  RH  039%=      5-min Rain = 0
KFL1 140157Z 02007KT 02/M10 A3016 RMK A01 T00211103  RH  039%=      5-min Rain = 0
KFL1 140158Z 01007KT 02/M10 A3016 RMK A01 T00171103  RH  041%=      5-min Rain = 0
KFL1 140159Z 01007KT 01/M10 A3016 RMK A01 T00141102  RH  042%=      5-min Rain = 0
KFL1 140200Z 01007KT 01/M10 A3016 RMK A01 T00141101  RH  042%=      5-min Rain = 0
KFL1 140201Z 01007KT 01/M10 A3016 RMK A01 T00121101  RH  043%=      5-min Rain = 0
KFL1 140202Z 00008KT 01/M10 A3016 RMK A01 T00131100  RH  043%=      5-min Rain = 0
KFL1 140203Z 00007KT 01/M10 A3016 RMK A01 T00141098  RH  043%=      5-min Rain = 0
KFL1 140204Z 36007KT 01/M10 A3016 RMK A01 T00141100  RH  042%=      5-min Rain = 0
KFL1 140205Z 35008KT 01/M10 A3016 RMK A01 T00141100  RH  042%=      5-min Rain = 0
KFL1 140206Z 35007KT 01/M10 A3016 RMK A01 T00131100  RH  043%=      5-min Rain = 0
KFL1 140207Z 35009KT 02/M10 A3016 RMK A01 T00151098  RH  043%=      5-min Rain = 0
KFL1 140208Z 00008KT 01/M10 A3016 RMK A01 T00141099  RH  043%=      5-min Rain = 0
KFL1 140209Z 36007KT 01/M10 A3016 RMK A01 T00141098  RH  043%=      5-min Rain = 0
KFL1 140210Z 35009KT 01/M10 A3016 RMK A01 T00131099  RH  043%=      5-min Rain = 0
KFL1 140211Z 35008KT 02/M10 A3016 RMK A01 T00151098  RH  043%=      5-min Rain = 0
KFL1 140212Z 35007KT 02/M10 A3016 RMK A01 T00161098  RH  043%=      5-min Rain = 0
KFL1 140213Z 36007KT 02/M10 A3016 RMK A01 T00201096  RH  042%=      5-min Rain = 0
KFL1 140214Z 36007KT 02/M10 A3016 RMK A01 T00211096  RH  042%=      5-min Rain = 0
KFL1 140215Z 01006KT 02/M10 A3016 RMK A01 T00221097  RH  041%=      5-min Rain = 0
KFL1 140216Z 03006KT 03/M10 A3016 RMK A01 T00261097  RH  040%=      5-min Rain = 0
KFL1 140217Z 03008KT 03/M10 A3016 RMK A01 T00291096  RH  039%=      5-min Rain = 0
KFL1 140218Z 03008KT 03/M10 A3016 RMK A01 T00271100  RH  039%=      5-min Rain = 0
KFL1 140219Z 03008KT 03/M10 A3016 RMK A01 T00281101  RH  038%=      5-min Rain = 0
KFL1 140220Z 02008KT 03/M10 A3017 RMK A01 T00331100  RH  037%=      5-min Rain = 0
KFL1 140221Z 02008KT 03/M10 A3017 RMK A01 T00341101  RH  036%=      5-min Rain = 0
KFL1 140222Z 03009KT 03/M10 A3017 RMK A01 T00291103  RH  037%=      5-min Rain = 0
KFL1 140223Z 02008KT 02/M10 A3017 RMK A01 T00241104  RH  038%=      5-min Rain = 0
KFL1 140224Z 02010KT 02/M10 A3017 RMK A01 T00241102  RH  039%=      5-min Rain = 0
KFL1 140225Z 02007KT 02/M10 A3017 RMK A01 T00231101  RH  039%=      5-min Rain = 0
KFL1 140226Z 02007KT 03/M10 A3017 RMK A01 T00261101  RH  039%=      5-min Rain = 0
KFL1 140227Z 02008KT 03/M10 A3017 RMK A01 T00251102  RH  039%=      5-min Rain = 0
KFL1 140228Z 02008KT 02/M10 A3017 RMK A01 T00221102  RH  039%=      5-min Rain = 0
KFL1 140229Z 02008KT 02/M10 A3017 RMK A01 T00181103  RH  040%=      5-min Rain = 0
KFL1 140230Z 02007KT 02/M10 A3017 RMK A01 T00161101  RH  041%=      5-min Rain = 0
KFL1 140231Z 03006KT 01/M10 A3017 RMK A01 T00111102  RH  043%=      5-min Rain = 0
KFL1 140232Z 03006KT 01/M10 A3017 RMK A01 T00081101  RH  044%=      5-min Rain = 0
KFL1 140233Z 04008KT 01/M10 A3017 RMK A01 T00081101  RH  044%=      5-min Rain = 0
KFL1 140234Z 04008KT 02/M10 A3017 RMK A01 T00151098  RH  043%=      5-min Rain = 0
KFL1 140235Z 04008KT 02/M10 A3017 RMK A01 T00221099  RH  040%=      5-min Rain = 0
KFL1 140236Z 04009KT 03/M10 A3017 RMK A01 T00291099  RH  039%=      5-min Rain = 0
KFL1 140237Z 03008KT 03/M10 A3017 RMK A01 T00311101  RH  037%=      5-min Rain = 0
KFL1 140238Z 03009KT 03/M10 A3017 RMK A01 T00321103  RH  037%=      5-min Rain = 0
KFL1 140239Z 03008KT 04/M10 A3017 RMK A01 T00351101  RH  036%=      5-min Rain = 0
KFL1 140240Z 03008KT 04/M10 A3017 RMK A01 T00361101  RH  036%=      5-min Rain = 0
KFL1 140241Z 03008KT 04/M10 A3017 RMK A01 T00381101  RH  035%=      5-min Rain = 0
KFL1 140242Z 03009KT 04/M10 A3017 RMK A01 T00381102  RH  035%=      5-min Rain = 0
KFL1 140243Z 03009KT 04/M10 A3017 RMK A01 T00371103  RH  035%=      5-min Rain = 0
KFL1 140244Z 03008KT 04/M10 A3017 RMK A01 T00371103  RH  035%=      5-min Rain = 0
KFL1 140245Z 03008KT 04/M10 A3017 RMK A01 T00371103  RH  035%=      5-min Rain = 0
KFL1 140246Z 04007KT 04/M10 A3017 RMK A01 T00361103  RH  035%=      5-min Rain = 0
KFL1 140247Z 03007KT 04/M11 A3017 RMK A01 T00351105  RH  035%=      5-min Rain = 0
KFL1 140248Z 03008KT 04/M10 A3017 RMK A01 T00361103  RH  036%=      5-min Rain = 0
KFL1 140249Z 04007KT 04/M10 A3017 RMK A01 T00351103  RH  036%=      5-min Rain = 0
KFL1 140250Z 04008KT 04/M10 A3017 RMK A01 T00361102  RH  036%=      5-min Rain = 0
KFL1 140251Z 04007KT 04/M10 A3017 RMK A01 T00351103  RH  036%=      5-min Rain = 0
KFL1 140252Z 03009KT 04/M10 A3017 RMK A01 T00361101  RH  036%=      5-min Rain = 0
KFL1 140253Z 02009KT 04/M10 A3017 RMK A01 T00351102  RH  036%=      5-min Rain = 0
KFL1 140254Z 02009KT 04/M10 A3017 RMK A01 T00371100  RH  036%=      5-min Rain = 0
KFL1 140255Z 02009KT 03/M10 A3017 RMK A01 T00331102  RH  036%=      5-min Rain = 0
KFL1 140256Z 03008KT 03/M10 A3017 RMK A01 T00321102  RH  037%=      5-min Rain = 0
KFL1 140257Z 02008KT 03/M10 A3017 RMK A01 T00331101  RH  037%=      5-min Rain = 0
KFL1 140258Z 02009KT 03/M10 A3017 RMK A01 T00331103  RH  036%=      5-min Rain = 0
KFL1 140259Z 03008KT 03/M10 A3017 RMK A01 T00341102  RH  036%=      5-min Rain = 0
KFL1 140300Z 03007KT 03/M10 A3017 RMK A01 T00341103  RH  036%=      5-min Rain = 0
KFL1 140301Z 03008KT 04/M10 A3017 RMK A01 T00371102  RH  036%=      5-min Rain = 0
KFL1 140302Z 03008KT 04/M10 A3017 RMK A01 T00381101  RH  035%=      5-min Rain = 0
KFL1 140303Z 03008KT 04/M10 A3017 RMK A01 T00371103  RH  035%=      5-min Rain = 0
KFL1 140304Z 03007KT 04/M10 A3017 RMK A01 T00371104  RH  035%=      5-min Rain = 0
KFL1 140305Z 03008KT 04/M10 A3017 RMK A01 T00371103  RH  035%=      5-min Rain = 0
KFL1 140306Z 03008KT 04/M11 A3017 RMK A01 T00351105  RH  035%=      5-min Rain = 0
KFL1 140307Z 04007KT 04/M10 A3017 RMK A01 T00361104  RH  035%=      5-min Rain = 0
KFL1 140308Z 03006KT 04/M10 A3017 RMK A01 T00351103  RH  035%=      5-min Rain = 0
KFL1 140309Z 04007KT 04/M10 A3017 RMK A01 T00351103  RH  036%=      5-min Rain = 0
KFL1 140310Z 04007KT 03/M10 A3017 RMK A01 T00341103  RH  036%=      5-min Rain = 0
KFL1 140311Z 04008KT 03/M10 A3017 RMK A01 T00331102  RH  036%=      5-min Rain = 0
KFL1 140312Z 05007KT 03/M10 A3017 RMK A01 T00311103  RH  037%=      5-min Rain = 0
KFL1 140313Z 04008KT 03/M10 A3017 RMK A01 T00291104  RH  037%=      5-min Rain = 0
KFL1 140314Z 03007KT 03/M10 A3017 RMK A01 T00291102  RH  037%=      5-min Rain = 0
KFL1 140315Z 03008KT 03/M10 A3017 RMK A01 T00281104  RH  037%=      5-min Rain = 0
KFL1 140316Z 04007KT 03/M10 A3017 RMK A01 T00291103  RH  037%=      5-min Rain = 0
KFL1 140317Z 03008KT 03/M10 A3017 RMK A01 T00291104  RH  037%=      5-min Rain = 0
KFL1 140318Z 03009KT 03/M10 A3017 RMK A01 T00301103  RH  037%=      5-min Rain = 0
KFL1 140319Z 03008KT 03/M10 A3017 RMK A01 T00321103  RH  037%=      5-min Rain = 0
KFL1 140320Z 03008KT 03/M10 A3017 RMK A01 T00341102  RH  036%=      5-min Rain = 0
KFL1 140321Z 03008KT 03/M10 A3017 RMK A01 T00341104  RH  036%=      5-min Rain = 0
KFL1 140322Z 03007KT 03/M10 A3017 RMK A01 T00341103  RH  036%=      5-min Rain = 0
KFL1 140323Z 03008KT 04/M10 A3017 RMK A01 T00351104  RH  035%=      5-min Rain = 0
KFL1 140324Z 03007KT 04/M11 A3017 RMK A01 T00351105  RH  035%=      5-min Rain = 0
KFL1 140325Z 04006KT 03/M11 A3017 RMK A01 T00341106  RH  035%=      5-min Rain = 0
KFL1 140326Z 05008KT 04/M10 A3017 RMK A01 T00371104  RH  035%=      5-min Rain = 0
KFL1 140327Z 05008KT 04/M11 A3017 RMK A01 T00361105  RH  035%=      5-min Rain = 0
KFL1 140328Z 04008KT 04/M10 A3017 RMK A01 T00351103  RH  036%=      5-min Rain = 0
KFL1 140329Z 04007KT 03/M10 A3017 RMK A01 T00341103  RH  036%=      5-min Rain = 0
KFL1 140330Z 04009KT 03/M10 A3017 RMK A01 T00321103  RH  036%=      5-min Rain = 0
KFL1 140331Z 05008KT 03/M10 A3017 RMK A01 T00311103  RH  037%=      5-min Rain = 0
KFL1 140332Z 05008KT 03/M10 A3017 RMK A01 T00291103  RH  037%=      5-min Rain = 0
KFL1 140333Z 05011KT 03/M10 A3017 RMK A01 T00271104  RH  037%=      5-min Rain = 0
KFL1 140334Z 05010KT 03/M11 A3017 RMK A01 T00271105  RH  037%=      5-min Rain = 0
KFL1 140335Z 04009KT 03/M11 A3017 RMK A01 T00251106  RH  037%=      5-min Rain = 0
KFL1 140336Z 04010KT 03/M11 A3017 RMK A01 T00261106  RH  037%=      5-min Rain = 0
KFL1 140337Z 05009KT 03/M11 A3017 RMK A01 T00271105  RH  037%=      5-min Rain = 0
KFL1 140338Z 04009KT 03/M11 A3017 RMK A01 T00281105  RH  037%=      5-min Rain = 0
KFL1 140339Z 04009KT 03/M11 A3018 RMK A01 T00281106  RH  037%=      5-min Rain = 0
KFL1 140340Z 04009KT 03/M11 A3018 RMK A01 T00281107  RH  036%=      5-min Rain = 0
KFL1 140341Z 04009KT 03/M11 A3018 RMK A01 T00291106  RH  036%=      5-min Rain = 0
KFL1 140342Z 04009KT 03/M11 A3018 RMK A01 T00281109  RH  036%=      5-min Rain = 0
KFL1 140343Z 04007KT 03/M11 A3018 RMK A01 T00291108  RH  036%=      5-min Rain = 0
KFL1 140344Z 05010KT 03/M11 A3018 RMK A01 T00301108  RH  035%=      5-min Rain = 0
KFL1 140345Z 04010KT 03/M11 A3018 RMK A01 T00311108  RH  035%=      5-min Rain = 0
KFL1 140346Z 04009KT 03/M11 A3018 RMK A01 T00321108  RH  035%=      5-min Rain = 0
KFL1 140347Z 04008KT 03/M11 A3018 RMK A01 T00341108  RH  035%=      5-min Rain = 0
KFL1 140348Z 04008KT 03/M11 A3018 RMK A01 T00331110  RH  034%=      5-min Rain = 0
KFL1 140349Z 04009KT 03/M11 A3018 RMK A01 T00331110  RH  034%=      5-min Rain = 0
KFL1 140350Z 03008KT 03/M11 A3018 RMK A01 T00301112  RH  035%=      5-min Rain = 0
KFL1 140351Z 04008KT 03/M11 A3018 RMK A01 T00301110  RH  035%=      5-min Rain = 0
KFL1 140352Z 04008KT 03/M11 A3018 RMK A01 T00301111  RH  035%=      5-min Rain = 0
KFL1 140353Z 03008KT 03/M11 A3018 RMK A01 T00311110  RH  035%=      5-min Rain = 0
KFL1 140354Z 04008KT 03/M11 A3018 RMK A01 T00281112  RH  035%=      5-min Rain = 0
KFL1 140355Z 04010KT 03/M11 A3018 RMK A01 T00271112  RH  035%=      5-min Rain = 0
KFL1 140356Z 03010KT 03/M11 A3018 RMK A01 T00251112  RH  036%=      5-min Rain = 0
KFL1 140357Z 04009KT 03/M11 A3018 RMK A01 T00251112  RH  036%=      5-min Rain = 0
KFL1 140358Z 04008KT 03/M11 A3018 RMK A01 T00271111  RH  036%=      5-min Rain = 0
KFL1 140359Z 05008KT 03/M11 A3018 RMK A01 T00291109  RH  036%=      5-min Rain = 0
KFL1 140400Z 05009KT 03/M11 A3018 RMK A01 T00271110  RH  036%=      5-min Rain = 0
KFL1 140401Z 05009KT 03/M11 A3018 RMK A01 T00251111  RH  036%=      5-min Rain = 0
KFL1 140402Z 05009KT 03/M11 A3018 RMK A01 T00261110  RH  036%=      5-min Rain = 0
KFL1 140403Z 04009KT 03/M11 A3018 RMK A01 T00261112  RH  035%=      5-min Rain = 0
KFL1 140404Z 04008KT 03/M11 A3018 RMK A01 T00301110  RH  035%=      5-min Rain = 0
KFL1 140405Z 05008KT 03/M11 A3018 RMK A01 T00301110  RH  035%=      5-min Rain = 0
KFL1 140406Z 05008KT 03/M11 A3018 RMK A01 T00291110  RH  035%=      5-min Rain = 0
KFL1 140407Z 04006KT 03/M11 A3018 RMK A01 T00251112  RH  036%=      5-min Rain = 0
KFL1 140408Z 03007KT 02/M11 A3018 RMK A01 T00231112  RH  036%=      5-min Rain = 0
KFL1 140409Z 03007KT 02/M11 A3018 RMK A01 T00221113  RH  036%=      5-min Rain = 0
KFL1 140410Z 04007KT 02/M11 A3018 RMK A01 T00211113  RH  036%=      5-min Rain = 0
KFL1 140411Z 04008KT 02/M11 A3018 RMK A01 T00201113  RH  037%=      5-min Rain = 0
KFL1 140412Z 02007KT 02/M11 A3018 RMK A01 T00201112  RH  037%=      5-min Rain = 0
KFL1 140413Z 03006KT 02/M11 A3019 RMK A01 T00191112  RH  037%=      5-min Rain = 0
KFL1 140414Z 03007KT 01/M11 A3019 RMK A01 T00141113  RH  038%=      5-min Rain = 0
KFL1 140415Z 01005KT 01/M11 A3019 RMK A01 T00111113  RH  039%=      5-min Rain = 0
KFL1 140416Z 01004KT 01/M11 A3019 RMK A01 T00081114  RH  040%=      5-min Rain = 0
KFL1 140417Z 03004KT 01/M11 A3019 RMK A01 T00051114  RH  041%=      5-min Rain = 0
KFL1 140418Z 04005KT 00/M11 A3019 RMK A01 T00021114  RH  041%=      5-min Rain = 0
KFL1 140419Z 03005KT 00/M11 A3019 RMK A01 T00011112  RH  042%=      5-min Rain = 0
KFL1 140420Z 03004KT 00/11 A3019 RMK A01 T00-00-112  RH  043%=      5-min Rain = 0
KFL1 140421Z 04003KT M00/M11 A3019 RMK A01 T10021114  RH  043%=      5-min Rain = 0
KFL1 140422Z 04004KT M00/M11 A3019 RMK A01 T10031114  RH  043%=      5-min Rain = 0
KFL1 140423Z 04006KT M01/M12 A3019 RMK A01 T10061115  RH  043%=      5-min Rain = 0
KFL1 140424Z 04007KT M00/M11 A3019 RMK A01 T10041112  RH  044%=      5-min Rain = 0
KFL1 140425Z 04007KT 00/M11 A3019 RMK A01 T00011109  RH  043%=      5-min Rain = 0
KFL1 140426Z 04008KT 01/M11 A3019 RMK A01 T00071107  RH  042%=      5-min Rain = 0
KFL1 140427Z 05007KT 01/M11 A3019 RMK A01 T00141106  RH  041%=      5-min Rain = 0
KFL1 140428Z 05007KT 02/M11 A3019 RMK A01 T00181106  RH  039%=      5-min Rain = 0
KFL1 140429Z 04007KT 02/M11 A3019 RMK A01 T00201107  RH  038%=      5-min Rain = 0
KFL1 140430Z 04007KT 02/M11 A3019 RMK A01 T00201109  RH  038%=      5-min Rain = 0
KFL1 140431Z 04007KT 02/M11 A3019 RMK A01 T00201108  RH  038%=      5-min Rain = 0
KFL1 140432Z 04007KT 02/M11 A3019 RMK A01 T00181110  RH  038%=      5-min Rain = 0
KFL1 140433Z 03008KT 02/M11 A3019 RMK A01 T00181110  RH  038%=      5-min Rain = 0
KFL1 140434Z 03008KT 02/M11 A3019 RMK A01 T00171110  RH  038%=      5-min Rain = 0
KFL1 140435Z 03006KT 02/M11 A3019 RMK A01 T00181110  RH  038%=      5-min Rain = 0
KFL1 140436Z 03006KT 02/M11 A3019 RMK A01 T00171111  RH  038%=      5-min Rain = 0
KFL1 140437Z 03005KT 02/M11 A3019 RMK A01 T00161111  RH  038%=      5-min Rain = 0
KFL1 140438Z 02005KT 01/M11 A3019 RMK A01 T00101112  RH  040%=      5-min Rain = 0
KFL1 140439Z 02004KT 00/M11 A3019 RMK A01 T00031113  RH  042%=      5-min Rain = 0
KFL1 140440Z 03005KT M00/M11 A3019 RMK A01 T10021112  RH  043%=      5-min Rain = 0
KFL1 140441Z 02007KT M01/M11 A3019 RMK A01 T10051111  RH  045%=      5-min Rain = 0
KFL1 140442Z 03007KT M01/M11 A3019 RMK A01 T10081111  RH  046%=      5-min Rain = 0
KFL1 140443Z 02007KT M01/M11 A3019 RMK A01 T10101112  RH  046%=      5-min Rain = 0
KFL1 140444Z 02008KT M01/M11 A3019 RMK A01 T10091110  RH  046%=      5-min Rain = 0
KFL1 140445Z 02009KT M01/M11 A3019 RMK A01 T10101112  RH  046%=      5-min Rain = 0
KFL1 140446Z 02009KT M01/M11 A3019 RMK A01 T10101112  RH  046%=      5-min Rain = 0
KFL1 140447Z 03009KT M01/M11 A3019 RMK A01 T10101111  RH  046%=      5-min Rain = 0
KFL1 140448Z 03008KT M01/M11 A3019 RMK A01 T10091111  RH  046%=      5-min Rain = 0
KFL1 140449Z 03007KT M01/M11 A3019 RMK A01 T10051110  RH  045%=      5-min Rain = 0
KFL1 140450Z 03008KT M00/M11 A3019 RMK A01 T10041111  RH  044%=      5-min Rain = 0
KFL1 140451Z 03008KT M00/M11 A3019 RMK A01 T10011110  RH  044%=      5-min Rain = 0
KFL1 140452Z 03007KT M00/M11 A3019 RMK A01 T10041113  RH  044%=      5-min Rain = 0
KFL1 140453Z 03006KT M00/M11 A3019 RMK A01 T10031112  RH  044%=      5-min Rain = 0
KFL1 140454Z 03007KT M00/M11 A3019 RMK A01 T10041111  RH  044%=      5-min Rain = 0
KFL1 140455Z 04007KT M00/M11 A3019 RMK A01 T10041111  RH  045%=      5-min Rain = 0
KFL1 140456Z 04005KT M01/M11 A3019 RMK A01 T10051110  RH  045%=      5-min Rain = 0
KFL1 140457Z 03005KT M01/M11 A3019 RMK A01 T10061111  RH  045%=      5-min Rain = 0
KFL1 140458Z 03006KT M01/M11 A3019 RMK A01 T10061111  RH  045%=      5-min Rain = 0
KFL1 140459Z 03007KT M01/M11 A3019 RMK A01 T10071112  RH  045%=      5-min Rain = 0
KFL1 140500Z 03007KT M01/M11 A3019 RMK A01 T10061112  RH  045%=      5-min Rain = 0
KFL1 140501Z 04006KT M01/M11 A3019 RMK A01 T10051111  RH  045%=      5-min Rain = 0
KFL1 140502Z 04005KT M00/M11 A3019 RMK A01 T10041110  RH  044%=      5-min Rain = 0
KFL1 140503Z 04006KT M00/M11 A3019 RMK A01 T10031111  RH  044%=      5-min Rain = 0
KFL1 140504Z 04006KT 00/11 A3019 RMK A01 T00-00-110  RH  043%=      5-min Rain = 0
KFL1 140505Z 04006KT 00/M11 A3019 RMK A01 T00031111  RH  042%=      5-min Rain = 0
KFL1 140506Z 04006KT 01/M11 A3019 RMK A01 T00061110  RH  041%=      5-min Rain = 0
KFL1 140507Z 04005KT 01/M11 A3019 RMK A01 T00061111  RH  041%=      5-min Rain = 0
KFL1 140508Z 04005KT 01/M11 A3019 RMK A01 T00051111  RH  042%=      5-min Rain = 0
KFL1 140509Z 05007KT 00/M11 A3019 RMK A01 T00041112  RH  042%=      5-min Rain = 0
KFL1 140510Z 04007KT 00/M11 A3019 RMK A01 T00011113  RH  042%=      5-min Rain = 0
KFL1 140511Z 04006KT 01/M11 A3019 RMK A01 T00051110  RH  042%=      5-min Rain = 0
KFL1 140512Z 05007KT 01/M11 A3019 RMK A01 T00111110  RH  040%=      5-min Rain = 0
KFL1 140513Z 05007KT 02/M11 A3019 RMK A01 T00181108  RH  039%=      5-min Rain = 0
KFL1 140514Z 04008KT 02/M11 A3019 RMK A01 T00191110  RH  038%=      5-min Rain = 0
KFL1 140515Z 04007KT 02/M11 A3019 RMK A01 T00231108  RH  037%=      5-min Rain = 0
KFL1 140516Z 04006KT 03/M11 A3019 RMK A01 T00271107  RH  036%=      5-min Rain = 0
KFL1 140517Z 04007KT 02/M11 A3019 RMK A01 T00241110  RH  036%=      5-min Rain = 0
KFL1 140518Z 04006KT 02/M11 A3019 RMK A01 T00231110  RH  037%=      5-min Rain = 0
KFL1 140519Z 04006KT 02/M11 A3019 RMK A01 T00221110  RH  037%=      5-min Rain = 0
KFL1 140520Z 04006KT 02/M11 A3019 RMK A01 T00221110  RH  037%=      5-min Rain = 0
KFL1 140521Z 04006KT 02/M11 A3019 RMK A01 T00161112  RH  038%=      5-min Rain = 0
KFL1 140522Z 04006KT 01/M11 A3019 RMK A01 T00141111  RH  039%=      5-min Rain = 0
KFL1 140523Z 04006KT 02/M11 A3019 RMK A01 T00151109  RH  039%=      5-min Rain = 0
KFL1 140524Z 04007KT 02/M11 A3019 RMK A01 T00201107  RH  038%=      5-min Rain = 0
KFL1 140525Z 04006KT 03/M11 A3019 RMK A01 T00251107  RH  037%=      5-min Rain = 0
KFL1 140526Z 04006KT 03/M11 A3019 RMK A01 T00281108  RH  036%=      5-min Rain = 0
KFL1 140527Z 04006KT 03/M11 A3019 RMK A01 T00271109  RH  036%=      5-min Rain = 0
KFL1 140528Z 05006KT 03/M11 A3019 RMK A01 T00251110  RH  036%=      5-min Rain = 0
KFL1 140529Z 04008KT 03/M11 A3019 RMK A01 T00271108  RH  036%=      5-min Rain = 0
KFL1 140530Z 04008KT 03/M11 A3019 RMK A01 T00281108  RH  036%=      5-min Rain = 0
KFL1 140531Z 04007KT 03/M11 A3019 RMK A01 T00281110  RH  036%=      5-min Rain = 0
KFL1 140532Z 05007KT 03/M11 A3019 RMK A01 T00291110  RH  035%=      5-min Rain = 0
KFL1 140533Z 04007KT 03/M11 A3019 RMK A01 T00301109  RH  035%=      5-min Rain = 0
KFL1 140534Z 04007KT 03/M11 A3019 RMK A01 T00291111  RH  035%=      5-min Rain = 0
KFL1 140535Z 04007KT 03/M11 A3019 RMK A01 T00271111  RH  035%=      5-min Rain = 0
KFL1 140536Z 04007KT 03/M11 A3019 RMK A01 T00271111  RH  036%=      5-min Rain = 0
KFL1 140537Z 04006KT 03/M11 A3019 RMK A01 T00261110  RH  036%=      5-min Rain = 0
KFL1 140538Z 04007KT 02/M11 A3019 RMK A01 T00231111  RH  036%=      5-min Rain = 0
KFL1 140539Z 04007KT 02/M11 A3019 RMK A01 T00211112  RH  037%=      5-min Rain = 0
KFL1 140540Z 04008KT 02/M11 A3019 RMK A01 T00211112  RH  037%=      5-min Rain = 0
KFL1 140541Z 04007KT 02/M11 A3019 RMK A01 T00231111  RH  036%=      5-min Rain = 0
KFL1 140542Z 04007KT 03/M11 A3019 RMK A01 T00251111  RH  036%=      5-min Rain = 0
KFL1 140543Z 04005KT 03/M11 A3019 RMK A01 T00271111  RH  035%=      5-min Rain = 0
KFL1 140544Z 03007KT 03/M11 A3019 RMK A01 T00271110  RH  036%=      5-min Rain = 0
KFL1 140545Z 03007KT 02/M11 A3019 RMK A01 T00241112  RH  036%=      5-min Rain = 0
KFL1 140546Z 04007KT 02/M11 A3019 RMK A01 T00231110  RH  037%=      5-min Rain = 0
KFL1 140547Z 04006KT 02/M11 A3019 RMK A01 T00201112  RH  037%=      5-min Rain = 0
KFL1 140548Z 04006KT 02/M11 A3019 RMK A01 T00151112  RH  038%=      5-min Rain = 0
KFL1 140549Z 04007KT 00/M12 A3019 RMK A01 T00011118  RH  040%=      5-min Rain = 0
KFL1 140550Z 04006KT M01/M12 A3019 RMK A01 T10081116  RH  044%=      5-min Rain = 0
KFL1 140551Z 04006KT M01/M11 A3019 RMK A01 T10111114  RH  046%=      5-min Rain = 0
KFL1 140552Z 03006KT M01/M11 A3019 RMK A01 T10101110  RH  047%=      5-min Rain = 0
KFL1 140553Z 03006KT M00/M11 A3019 RMK A01 T10041108  RH  046%=      5-min Rain = 0
KFL1 140554Z 03007KT M00/M11 A3019 RMK A01 T10021110  RH  044%=      5-min Rain = 0
KFL1 140555Z 03007KT M00/M11 A3019 RMK A01 T10031112  RH  044%=      5-min Rain = 0
KFL1 140556Z 04006KT M01/M12 A3019 RMK A01 T10081115  RH  044%=      5-min Rain = 0
KFL1 140557Z 04006KT M01/M11 A3019 RMK A01 T10101113  RH  045%=      5-min Rain = 0
KFL1 140558Z 03007KT M01/M11 A302 RMK A01 T10131113  RH  046%=      5-min Rain = 0
KFL1 140559Z 03007KT M01/M11 A302 RMK A01 T10141113  RH  047%=      5-min Rain = 0

Page generated in 0.1252 seconds.